<?xml version="1.0" encoding="UTF-8" standalone="no" ?>
<gpx xmlns="http://www.topografix.com/GPX/1/1" xmlns:xsi="http://www.w3.org/2001/XMLSchema-instance" xsi:schemaLocation="http://www.topografix.com/GPX/1/1 http://www.topografix.com/GPX/1/1/gpx.xsd" version="1.1" creator="VisuGPX - https://www.visugpx.com">
  <metadata>
    <name>Lac Charvet</name>
    <desc><![CDATA[belle sortie raquettes]]></desc>
  </metadata>
  <trk>
    <name><![CDATA[2020-12-17 19-56-56]]></name>
    <trkseg>
      <trkpt lat="44.97304" lon="5.8245">
        <ele>1318.59</ele>
        <time>2020-12-17T08:50:27Z</time>
      </trkpt>
      <trkpt lat="44.97304" lon="5.8245">
        <ele>1318.1</ele>
        <time>2020-12-17T08:50:28Z</time>
      </trkpt>
      <trkpt lat="44.97283" lon="5.82511">
        <ele>1318.59</ele>
        <time>2020-12-17T08:50:59Z</time>
      </trkpt>
      <trkpt lat="44.97283" lon="5.8251">
        <ele>1318.59</ele>
        <time>2020-12-17T08:51:21Z</time>
      </trkpt>
      <trkpt lat="44.97283" lon="5.8251">
        <ele>1319.07</ele>
        <time>2020-12-17T08:51:47Z</time>
      </trkpt>
      <trkpt lat="44.97281" lon="5.82515">
        <ele>1318.59</ele>
        <time>2020-12-17T08:52:14Z</time>
      </trkpt>
      <trkpt lat="44.9728" lon="5.82515">
        <ele>1319.55</ele>
        <time>2020-12-17T08:52:39Z</time>
      </trkpt>
      <trkpt lat="44.9728" lon="5.82515">
        <ele>1318.59</ele>
        <time>2020-12-17T08:52:58Z</time>
      </trkpt>
      <trkpt lat="44.97281" lon="5.82513">
        <ele>1318.59</ele>
        <time>2020-12-17T08:53:16Z</time>
      </trkpt>
      <trkpt lat="44.97281" lon="5.82514">
        <ele>1318.1</ele>
        <time>2020-12-17T08:53:33Z</time>
      </trkpt>
      <trkpt lat="44.97281" lon="5.82514">
        <ele>1319.07</ele>
        <time>2020-12-17T08:53:40Z</time>
      </trkpt>
      <trkpt lat="44.9728" lon="5.82515">
        <ele>1318.59</ele>
        <time>2020-12-17T08:53:59Z</time>
      </trkpt>
      <trkpt lat="44.9728" lon="5.82516">
        <ele>1318.1</ele>
        <time>2020-12-17T08:54:25Z</time>
      </trkpt>
      <trkpt lat="44.9728" lon="5.82515">
        <ele>1317.62</ele>
        <time>2020-12-17T08:54:42Z</time>
      </trkpt>
      <trkpt lat="44.9728" lon="5.82516">
        <ele>1319.55</ele>
        <time>2020-12-17T08:55:03Z</time>
      </trkpt>
      <trkpt lat="44.9728" lon="5.82516">
        <ele>1318.1</ele>
        <time>2020-12-17T08:55:19Z</time>
      </trkpt>
      <trkpt lat="44.9728" lon="5.8252">
        <ele>1318.1</ele>
        <time>2020-12-17T08:55:26Z</time>
      </trkpt>
      <trkpt lat="44.97278" lon="5.82532">
        <ele>1317.62</ele>
        <time>2020-12-17T08:55:37Z</time>
      </trkpt>
      <trkpt lat="44.97277" lon="5.82533">
        <ele>1317.62</ele>
        <time>2020-12-17T08:55:38Z</time>
      </trkpt>
      <trkpt lat="44.97277" lon="5.82536">
        <ele>1317.62</ele>
        <time>2020-12-17T08:55:40Z</time>
      </trkpt>
      <trkpt lat="44.97274" lon="5.82544">
        <ele>1317.62</ele>
        <time>2020-12-17T08:55:52Z</time>
      </trkpt>
      <trkpt lat="44.97275" lon="5.82546">
        <ele>1317.62</ele>
        <time>2020-12-17T08:56:05Z</time>
      </trkpt>
      <trkpt lat="44.97274" lon="5.82547">
        <ele>1317.62</ele>
        <time>2020-12-17T08:56:19Z</time>
      </trkpt>
      <trkpt lat="44.97276" lon="5.82548">
        <ele>1317.62</ele>
        <time>2020-12-17T08:56:23Z</time>
      </trkpt>
      <trkpt lat="44.97279" lon="5.82546">
        <ele>1317.62</ele>
        <time>2020-12-17T08:56:26Z</time>
      </trkpt>
      <trkpt lat="44.9728" lon="5.82545">
        <ele>1317.62</ele>
        <time>2020-12-17T08:56:27Z</time>
      </trkpt>
      <trkpt lat="44.97282" lon="5.82542">
        <ele>1318.1</ele>
        <time>2020-12-17T08:56:30Z</time>
      </trkpt>
      <trkpt lat="44.97287" lon="5.82544">
        <ele>1317.62</ele>
        <time>2020-12-17T08:56:36Z</time>
      </trkpt>
      <trkpt lat="44.97284" lon="5.82552">
        <ele>1317.62</ele>
        <time>2020-12-17T08:56:44Z</time>
      </trkpt>
      <trkpt lat="44.97282" lon="5.82554">
        <ele>1317.14</ele>
        <time>2020-12-17T08:56:46Z</time>
      </trkpt>
      <trkpt lat="44.97281" lon="5.82555">
        <ele>1317.14</ele>
        <time>2020-12-17T08:56:47Z</time>
      </trkpt>
      <trkpt lat="44.9728" lon="5.82556">
        <ele>1317.14</ele>
        <time>2020-12-17T08:56:48Z</time>
      </trkpt>
      <trkpt lat="44.97263" lon="5.82562">
        <ele>1315.22</ele>
        <time>2020-12-17T08:57:07Z</time>
      </trkpt>
      <trkpt lat="44.97258" lon="5.82568">
        <ele>1314.74</ele>
        <time>2020-12-17T08:57:19Z</time>
      </trkpt>
      <trkpt lat="44.97257" lon="5.82571">
        <ele>1314.26</ele>
        <time>2020-12-17T08:57:22Z</time>
      </trkpt>
      <trkpt lat="44.97257" lon="5.82572">
        <ele>1314.26</ele>
        <time>2020-12-17T08:57:23Z</time>
      </trkpt>
      <trkpt lat="44.97256" lon="5.82574">
        <ele>1313.78</ele>
        <time>2020-12-17T08:57:24Z</time>
      </trkpt>
      <trkpt lat="44.97254" lon="5.82581">
        <ele>1313.3</ele>
        <time>2020-12-17T08:57:30Z</time>
      </trkpt>
      <trkpt lat="44.97249" lon="5.82592">
        <ele>1312.34</ele>
        <time>2020-12-17T08:57:40Z</time>
      </trkpt>
      <trkpt lat="44.97248" lon="5.82594">
        <ele>1312.34</ele>
        <time>2020-12-17T08:57:41Z</time>
      </trkpt>
      <trkpt lat="44.97248" lon="5.82595">
        <ele>1312.34</ele>
        <time>2020-12-17T08:57:42Z</time>
      </trkpt>
      <trkpt lat="44.9724" lon="5.8261">
        <ele>1311.38</ele>
        <time>2020-12-17T08:57:59Z</time>
      </trkpt>
      <trkpt lat="44.97239" lon="5.82625">
        <ele>1311.86</ele>
        <time>2020-12-17T08:58:14Z</time>
      </trkpt>
      <trkpt lat="44.97238" lon="5.82626">
        <ele>1311.86</ele>
        <time>2020-12-17T08:58:15Z</time>
      </trkpt>
      <trkpt lat="44.97233" lon="5.82643">
        <ele>1312.34</ele>
        <time>2020-12-17T08:58:30Z</time>
      </trkpt>
      <trkpt lat="44.97232" lon="5.82649">
        <ele>1312.82</ele>
        <time>2020-12-17T08:58:43Z</time>
      </trkpt>
      <trkpt lat="44.97233" lon="5.82663">
        <ele>1313.78</ele>
        <time>2020-12-17T08:58:56Z</time>
      </trkpt>
      <trkpt lat="44.97231" lon="5.82675">
        <ele>1314.26</ele>
        <time>2020-12-17T08:59:04Z</time>
      </trkpt>
      <trkpt lat="44.97232" lon="5.82676">
        <ele>1314.26</ele>
        <time>2020-12-17T08:59:05Z</time>
      </trkpt>
      <trkpt lat="44.9723" lon="5.82691">
        <ele>1315.7</ele>
        <time>2020-12-17T08:59:19Z</time>
      </trkpt>
      <trkpt lat="44.97229" lon="5.82706">
        <ele>1317.62</ele>
        <time>2020-12-17T08:59:35Z</time>
      </trkpt>
      <trkpt lat="44.97229" lon="5.82718">
        <ele>1319.55</ele>
        <time>2020-12-17T08:59:49Z</time>
      </trkpt>
      <trkpt lat="44.97232" lon="5.82731">
        <ele>1321.95</ele>
        <time>2020-12-17T09:00:05Z</time>
      </trkpt>
      <trkpt lat="44.97235" lon="5.82741">
        <ele>1323.87</ele>
        <time>2020-12-17T09:00:20Z</time>
      </trkpt>
      <trkpt lat="44.97238" lon="5.82752">
        <ele>1325.31</ele>
        <time>2020-12-17T09:00:34Z</time>
      </trkpt>
      <trkpt lat="44.97243" lon="5.82767">
        <ele>1328.68</ele>
        <time>2020-12-17T09:00:53Z</time>
      </trkpt>
      <trkpt lat="44.97249" lon="5.82779">
        <ele>1331.56</ele>
        <time>2020-12-17T09:01:13Z</time>
      </trkpt>
      <trkpt lat="44.9726" lon="5.82788">
        <ele>1333.97</ele>
        <time>2020-12-17T09:01:34Z</time>
      </trkpt>
      <trkpt lat="44.97273" lon="5.82792">
        <ele>1336.85</ele>
        <time>2020-12-17T09:01:54Z</time>
      </trkpt>
      <trkpt lat="44.97286" lon="5.82801">
        <ele>1339.25</ele>
        <time>2020-12-17T09:02:14Z</time>
      </trkpt>
      <trkpt lat="44.97298" lon="5.82813">
        <ele>1342.62</ele>
        <time>2020-12-17T09:02:38Z</time>
      </trkpt>
      <trkpt lat="44.97304" lon="5.82824">
        <ele>1345.5</ele>
        <time>2020-12-17T09:02:55Z</time>
      </trkpt>
      <trkpt lat="44.9731" lon="5.82837">
        <ele>1348.39</ele>
        <time>2020-12-17T09:03:15Z</time>
      </trkpt>
      <trkpt lat="44.97316" lon="5.82843">
        <ele>1351.27</ele>
        <time>2020-12-17T09:03:33Z</time>
      </trkpt>
      <trkpt lat="44.97323" lon="5.8285">
        <ele>1354.63</ele>
        <time>2020-12-17T09:03:50Z</time>
      </trkpt>
      <trkpt lat="44.97331" lon="5.82856">
        <ele>1357.52</ele>
        <time>2020-12-17T09:04:09Z</time>
      </trkpt>
      <trkpt lat="44.97345" lon="5.82865">
        <ele>1360.4</ele>
        <time>2020-12-17T09:04:35Z</time>
      </trkpt>
      <trkpt lat="44.97356" lon="5.82874">
        <ele>1363.77</ele>
        <time>2020-12-17T09:05:01Z</time>
      </trkpt>
      <trkpt lat="44.97369" lon="5.82883">
        <ele>1366.65</ele>
        <time>2020-12-17T09:05:27Z</time>
      </trkpt>
      <trkpt lat="44.97372" lon="5.82887">
        <ele>1367.61</ele>
        <time>2020-12-17T09:05:34Z</time>
      </trkpt>
      <trkpt lat="44.97387" lon="5.82901">
        <ele>1370.5</ele>
        <time>2020-12-17T09:06:01Z</time>
      </trkpt>
      <trkpt lat="44.97397" lon="5.82912">
        <ele>1373.38</ele>
        <time>2020-12-17T09:06:25Z</time>
      </trkpt>
      <trkpt lat="44.97398" lon="5.82915">
        <ele>1373.86</ele>
        <time>2020-12-17T09:06:29Z</time>
      </trkpt>
      <trkpt lat="44.97398" lon="5.82919">
        <ele>1375.3</ele>
        <time>2020-12-17T09:06:45Z</time>
      </trkpt>
      <trkpt lat="44.97407" lon="5.82921">
        <ele>1375.78</ele>
        <time>2020-12-17T09:07:01Z</time>
      </trkpt>
      <trkpt lat="44.97417" lon="5.8293">
        <ele>1375.3</ele>
        <time>2020-12-17T09:07:21Z</time>
      </trkpt>
      <trkpt lat="44.97422" lon="5.82946">
        <ele>1376.26</ele>
        <time>2020-12-17T09:07:44Z</time>
      </trkpt>
      <trkpt lat="44.97424" lon="5.82957">
        <ele>1379.15</ele>
        <time>2020-12-17T09:08:04Z</time>
      </trkpt>
      <trkpt lat="44.97423" lon="5.82965">
        <ele>1382.03</ele>
        <time>2020-12-17T09:08:27Z</time>
      </trkpt>
      <trkpt lat="44.97421" lon="5.8297">
        <ele>1384.92</ele>
        <time>2020-12-17T09:08:53Z</time>
      </trkpt>
      <trkpt lat="44.9742" lon="5.82976">
        <ele>1387.8</ele>
        <time>2020-12-17T09:09:12Z</time>
      </trkpt>
      <trkpt lat="44.9742" lon="5.82987">
        <ele>1390.2</ele>
        <time>2020-12-17T09:09:28Z</time>
      </trkpt>
      <trkpt lat="44.97421" lon="5.82994">
        <ele>1392.13</ele>
        <time>2020-12-17T09:09:51Z</time>
      </trkpt>
      <trkpt lat="44.97418" lon="5.83003">
        <ele>1393.09</ele>
        <time>2020-12-17T09:10:14Z</time>
      </trkpt>
      <trkpt lat="44.97421" lon="5.83018">
        <ele>1395.01</ele>
        <time>2020-12-17T09:10:35Z</time>
      </trkpt>
      <trkpt lat="44.97419" lon="5.83028">
        <ele>1396.45</ele>
        <time>2020-12-17T09:10:50Z</time>
      </trkpt>
      <trkpt lat="44.9742" lon="5.83043">
        <ele>1398.86</ele>
        <time>2020-12-17T09:11:16Z</time>
      </trkpt>
      <trkpt lat="44.97422" lon="5.83055">
        <ele>1402.22</ele>
        <time>2020-12-17T09:11:41Z</time>
      </trkpt>
      <trkpt lat="44.97422" lon="5.83064">
        <ele>1404.14</ele>
        <time>2020-12-17T09:12:00Z</time>
      </trkpt>
      <trkpt lat="44.97423" lon="5.83074">
        <ele>1405.58</ele>
        <time>2020-12-17T09:12:18Z</time>
      </trkpt>
      <trkpt lat="44.97423" lon="5.83088">
        <ele>1407.03</ele>
        <time>2020-12-17T09:12:36Z</time>
      </trkpt>
      <trkpt lat="44.97425" lon="5.83102">
        <ele>1408.95</ele>
        <time>2020-12-17T09:12:57Z</time>
      </trkpt>
      <trkpt lat="44.97427" lon="5.83111">
        <ele>1411.35</ele>
        <time>2020-12-17T09:13:19Z</time>
      </trkpt>
      <trkpt lat="44.97428" lon="5.83121">
        <ele>1412.31</ele>
        <time>2020-12-17T09:13:39Z</time>
      </trkpt>
      <trkpt lat="44.97428" lon="5.83122">
        <ele>1411.83</ele>
        <time>2020-12-17T09:14:07Z</time>
      </trkpt>
      <trkpt lat="44.97428" lon="5.8312">
        <ele>1411.83</ele>
        <time>2020-12-17T09:14:34Z</time>
      </trkpt>
      <trkpt lat="44.97424" lon="5.83124">
        <ele>1411.35</ele>
        <time>2020-12-17T09:15:04Z</time>
      </trkpt>
      <trkpt lat="44.97426" lon="5.83123">
        <ele>1411.35</ele>
        <time>2020-12-17T09:15:10Z</time>
      </trkpt>
      <trkpt lat="44.9743" lon="5.83119">
        <ele>1411.35</ele>
        <time>2020-12-17T09:15:34Z</time>
      </trkpt>
      <trkpt lat="44.97429" lon="5.83121">
        <ele>1411.83</ele>
        <time>2020-12-17T09:15:59Z</time>
      </trkpt>
      <trkpt lat="44.97427" lon="5.83122">
        <ele>1412.31</ele>
        <time>2020-12-17T09:16:24Z</time>
      </trkpt>
      <trkpt lat="44.97429" lon="5.83121">
        <ele>1411.83</ele>
        <time>2020-12-17T09:16:42Z</time>
      </trkpt>
      <trkpt lat="44.9743" lon="5.83137">
        <ele>1412.31</ele>
        <time>2020-12-17T09:17:01Z</time>
      </trkpt>
      <trkpt lat="44.97436" lon="5.8316">
        <ele>1414.72</ele>
        <time>2020-12-17T09:17:24Z</time>
      </trkpt>
      <trkpt lat="44.9744" lon="5.83183">
        <ele>1417.6</ele>
        <time>2020-12-17T09:17:49Z</time>
      </trkpt>
      <trkpt lat="44.97447" lon="5.832">
        <ele>1420</ele>
        <time>2020-12-17T09:18:10Z</time>
      </trkpt>
      <trkpt lat="44.9745" lon="5.83218">
        <ele>1422.41</ele>
        <time>2020-12-17T09:18:32Z</time>
      </trkpt>
      <trkpt lat="44.97454" lon="5.83234">
        <ele>1425.29</ele>
        <time>2020-12-17T09:18:51Z</time>
      </trkpt>
      <trkpt lat="44.97457" lon="5.83252">
        <ele>1428.18</ele>
        <time>2020-12-17T09:19:14Z</time>
      </trkpt>
      <trkpt lat="44.97459" lon="5.83266">
        <ele>1430.1</ele>
        <time>2020-12-17T09:19:31Z</time>
      </trkpt>
      <trkpt lat="44.97462" lon="5.83283">
        <ele>1432.98</ele>
        <time>2020-12-17T09:19:53Z</time>
      </trkpt>
      <trkpt lat="44.97468" lon="5.83298">
        <ele>1434.91</ele>
        <time>2020-12-17T09:20:13Z</time>
      </trkpt>
      <trkpt lat="44.97475" lon="5.83319">
        <ele>1437.79</ele>
        <time>2020-12-17T09:20:39Z</time>
      </trkpt>
      <trkpt lat="44.97483" lon="5.8334">
        <ele>1441.15</ele>
        <time>2020-12-17T09:21:04Z</time>
      </trkpt>
      <trkpt lat="44.97487" lon="5.83363">
        <ele>1444.04</ele>
        <time>2020-12-17T09:21:30Z</time>
      </trkpt>
      <trkpt lat="44.97497" lon="5.83387">
        <ele>1446.44</ele>
        <time>2020-12-17T09:21:56Z</time>
      </trkpt>
      <trkpt lat="44.97502" lon="5.83403">
        <ele>1448.84</ele>
        <time>2020-12-17T09:22:14Z</time>
      </trkpt>
      <trkpt lat="44.97509" lon="5.83426">
        <ele>1450.77</ele>
        <time>2020-12-17T09:22:40Z</time>
      </trkpt>
      <trkpt lat="44.97515" lon="5.83443">
        <ele>1453.17</ele>
        <time>2020-12-17T09:23:01Z</time>
      </trkpt>
      <trkpt lat="44.9752" lon="5.83457">
        <ele>1455.57</ele>
        <time>2020-12-17T09:23:20Z</time>
      </trkpt>
      <trkpt lat="44.97528" lon="5.8347">
        <ele>1457.98</ele>
        <time>2020-12-17T09:23:39Z</time>
      </trkpt>
      <trkpt lat="44.97532" lon="5.83487">
        <ele>1461.34</ele>
        <time>2020-12-17T09:24:02Z</time>
      </trkpt>
      <trkpt lat="44.97544" lon="5.8351">
        <ele>1464.23</ele>
        <time>2020-12-17T09:24:27Z</time>
      </trkpt>
      <trkpt lat="44.97546" lon="5.83523">
        <ele>1466.63</ele>
        <time>2020-12-17T09:24:43Z</time>
      </trkpt>
      <trkpt lat="44.97549" lon="5.83539">
        <ele>1468.07</ele>
        <time>2020-12-17T09:25:01Z</time>
      </trkpt>
      <trkpt lat="44.9755" lon="5.83556">
        <ele>1471.44</ele>
        <time>2020-12-17T09:25:24Z</time>
      </trkpt>
      <trkpt lat="44.97548" lon="5.83568">
        <ele>1473.84</ele>
        <time>2020-12-17T09:25:43Z</time>
      </trkpt>
      <trkpt lat="44.9755" lon="5.83586">
        <ele>1475.76</ele>
        <time>2020-12-17T09:26:02Z</time>
      </trkpt>
      <trkpt lat="44.97555" lon="5.83606">
        <ele>1477.68</ele>
        <time>2020-12-17T09:26:23Z</time>
      </trkpt>
      <trkpt lat="44.97556" lon="5.83621">
        <ele>1479.61</ele>
        <time>2020-12-17T09:26:40Z</time>
      </trkpt>
      <trkpt lat="44.97553" lon="5.83637">
        <ele>1482.49</ele>
        <time>2020-12-17T09:27:00Z</time>
      </trkpt>
      <trkpt lat="44.97545" lon="5.83655">
        <ele>1484.89</ele>
        <time>2020-12-17T09:27:22Z</time>
      </trkpt>
      <trkpt lat="44.97536" lon="5.83674">
        <ele>1487.78</ele>
        <time>2020-12-17T09:27:48Z</time>
      </trkpt>
      <trkpt lat="44.97533" lon="5.83693">
        <ele>1490.66</ele>
        <time>2020-12-17T09:28:10Z</time>
      </trkpt>
      <trkpt lat="44.97536" lon="5.83711">
        <ele>1493.55</ele>
        <time>2020-12-17T09:28:32Z</time>
      </trkpt>
      <trkpt lat="44.97542" lon="5.83729">
        <ele>1496.43</ele>
        <time>2020-12-17T09:28:53Z</time>
      </trkpt>
      <trkpt lat="44.97547" lon="5.83747">
        <ele>1498.35</ele>
        <time>2020-12-17T09:29:13Z</time>
      </trkpt>
      <trkpt lat="44.9755" lon="5.83763">
        <ele>1499.79</ele>
        <time>2020-12-17T09:29:29Z</time>
      </trkpt>
      <trkpt lat="44.97554" lon="5.83783">
        <ele>1501.72</ele>
        <time>2020-12-17T09:29:50Z</time>
      </trkpt>
      <trkpt lat="44.97563" lon="5.83804">
        <ele>1504.12</ele>
        <time>2020-12-17T09:30:13Z</time>
      </trkpt>
      <trkpt lat="44.97571" lon="5.83819">
        <ele>1505.56</ele>
        <time>2020-12-17T09:30:33Z</time>
      </trkpt>
      <trkpt lat="44.9758" lon="5.83831">
        <ele>1508.45</ele>
        <time>2020-12-17T09:30:53Z</time>
      </trkpt>
      <trkpt lat="44.97586" lon="5.83841">
        <ele>1510.37</ele>
        <time>2020-12-17T09:31:11Z</time>
      </trkpt>
      <trkpt lat="44.97595" lon="5.83852">
        <ele>1513.25</ele>
        <time>2020-12-17T09:31:31Z</time>
      </trkpt>
      <trkpt lat="44.97604" lon="5.83859">
        <ele>1515.18</ele>
        <time>2020-12-17T09:31:47Z</time>
      </trkpt>
      <trkpt lat="44.97612" lon="5.83868">
        <ele>1517.58</ele>
        <time>2020-12-17T09:32:05Z</time>
      </trkpt>
      <trkpt lat="44.97618" lon="5.83877">
        <ele>1519.5</ele>
        <time>2020-12-17T09:32:22Z</time>
      </trkpt>
      <trkpt lat="44.9762" lon="5.83878">
        <ele>1521.42</ele>
        <time>2020-12-17T09:32:39Z</time>
      </trkpt>
      <trkpt lat="44.97625" lon="5.83884">
        <ele>1521.9</ele>
        <time>2020-12-17T09:32:55Z</time>
      </trkpt>
      <trkpt lat="44.97634" lon="5.83893">
        <ele>1524.31</ele>
        <time>2020-12-17T09:33:15Z</time>
      </trkpt>
      <trkpt lat="44.97639" lon="5.839">
        <ele>1525.75</ele>
        <time>2020-12-17T09:33:31Z</time>
      </trkpt>
      <trkpt lat="44.97644" lon="5.83912">
        <ele>1528.15</ele>
        <time>2020-12-17T09:33:49Z</time>
      </trkpt>
      <trkpt lat="44.97651" lon="5.83918">
        <ele>1530.08</ele>
        <time>2020-12-17T09:34:04Z</time>
      </trkpt>
      <trkpt lat="44.9766" lon="5.83922">
        <ele>1532.48</ele>
        <time>2020-12-17T09:34:22Z</time>
      </trkpt>
      <trkpt lat="44.97669" lon="5.83926">
        <ele>1535.36</ele>
        <time>2020-12-17T09:34:43Z</time>
      </trkpt>
      <trkpt lat="44.97675" lon="5.83932">
        <ele>1537.77</ele>
        <time>2020-12-17T09:34:58Z</time>
      </trkpt>
      <trkpt lat="44.97681" lon="5.83944">
        <ele>1539.69</ele>
        <time>2020-12-17T09:35:15Z</time>
      </trkpt>
      <trkpt lat="44.97687" lon="5.83953">
        <ele>1541.61</ele>
        <time>2020-12-17T09:35:30Z</time>
      </trkpt>
      <trkpt lat="44.97697" lon="5.83955">
        <ele>1543.05</ele>
        <time>2020-12-17T09:35:44Z</time>
      </trkpt>
      <trkpt lat="44.97705" lon="5.83961">
        <ele>1545.94</ele>
        <time>2020-12-17T09:36:02Z</time>
      </trkpt>
      <trkpt lat="44.9771" lon="5.83968">
        <ele>1547.38</ele>
        <time>2020-12-17T09:36:19Z</time>
      </trkpt>
      <trkpt lat="44.97715" lon="5.83975">
        <ele>1549.78</ele>
        <time>2020-12-17T09:36:35Z</time>
      </trkpt>
      <trkpt lat="44.97719" lon="5.8398">
        <ele>1551.71</ele>
        <time>2020-12-17T09:36:47Z</time>
      </trkpt>
      <trkpt lat="44.97724" lon="5.83992">
        <ele>1554.59</ele>
        <time>2020-12-17T09:37:06Z</time>
      </trkpt>
      <trkpt lat="44.97732" lon="5.83999">
        <ele>1556.99</ele>
        <time>2020-12-17T09:37:25Z</time>
      </trkpt>
      <trkpt lat="44.97738" lon="5.84007">
        <ele>1558.92</ele>
        <time>2020-12-17T09:37:42Z</time>
      </trkpt>
      <trkpt lat="44.97744" lon="5.84014">
        <ele>1559.88</ele>
        <time>2020-12-17T09:37:58Z</time>
      </trkpt>
      <trkpt lat="44.9775" lon="5.84023">
        <ele>1562.76</ele>
        <time>2020-12-17T09:38:16Z</time>
      </trkpt>
      <trkpt lat="44.97758" lon="5.84031">
        <ele>1564.2</ele>
        <time>2020-12-17T09:38:33Z</time>
      </trkpt>
      <trkpt lat="44.97766" lon="5.84037">
        <ele>1566.12</ele>
        <time>2020-12-17T09:38:50Z</time>
      </trkpt>
      <trkpt lat="44.97776" lon="5.84044">
        <ele>1567.57</ele>
        <time>2020-12-17T09:39:08Z</time>
      </trkpt>
      <trkpt lat="44.97783" lon="5.84052">
        <ele>1569.97</ele>
        <time>2020-12-17T09:39:24Z</time>
      </trkpt>
      <trkpt lat="44.97788" lon="5.84058">
        <ele>1571.41</ele>
        <time>2020-12-17T09:39:38Z</time>
      </trkpt>
      <trkpt lat="44.97795" lon="5.84065">
        <ele>1573.82</ele>
        <time>2020-12-17T09:39:54Z</time>
      </trkpt>
      <trkpt lat="44.97805" lon="5.84073">
        <ele>1575.74</ele>
        <time>2020-12-17T09:40:14Z</time>
      </trkpt>
      <trkpt lat="44.97814" lon="5.8408">
        <ele>1578.14</ele>
        <time>2020-12-17T09:40:31Z</time>
      </trkpt>
      <trkpt lat="44.97821" lon="5.84085">
        <ele>1579.58</ele>
        <time>2020-12-17T09:40:45Z</time>
      </trkpt>
      <trkpt lat="44.97831" lon="5.8409">
        <ele>1581.03</ele>
        <time>2020-12-17T09:41:01Z</time>
      </trkpt>
      <trkpt lat="44.97839" lon="5.84093">
        <ele>1582.95</ele>
        <time>2020-12-17T09:41:16Z</time>
      </trkpt>
      <trkpt lat="44.97848" lon="5.84095">
        <ele>1583.91</ele>
        <time>2020-12-17T09:41:31Z</time>
      </trkpt>
      <trkpt lat="44.97856" lon="5.841">
        <ele>1585.35</ele>
        <time>2020-12-17T09:41:46Z</time>
      </trkpt>
      <trkpt lat="44.97865" lon="5.84105">
        <ele>1588.24</ele>
        <time>2020-12-17T09:42:03Z</time>
      </trkpt>
      <trkpt lat="44.97874" lon="5.84109">
        <ele>1589.68</ele>
        <time>2020-12-17T09:42:19Z</time>
      </trkpt>
      <trkpt lat="44.97881" lon="5.84113">
        <ele>1591.6</ele>
        <time>2020-12-17T09:42:34Z</time>
      </trkpt>
      <trkpt lat="44.9789" lon="5.84116">
        <ele>1594</ele>
        <time>2020-12-17T09:42:50Z</time>
      </trkpt>
      <trkpt lat="44.97898" lon="5.84122">
        <ele>1595.45</ele>
        <time>2020-12-17T09:43:06Z</time>
      </trkpt>
      <trkpt lat="44.97905" lon="5.84129">
        <ele>1597.37</ele>
        <time>2020-12-17T09:43:22Z</time>
      </trkpt>
      <trkpt lat="44.97909" lon="5.84132">
        <ele>1598.81</ele>
        <time>2020-12-17T09:43:40Z</time>
      </trkpt>
      <trkpt lat="44.97911" lon="5.84134">
        <ele>1599.29</ele>
        <time>2020-12-17T09:44:05Z</time>
      </trkpt>
      <trkpt lat="44.97915" lon="5.84138">
        <ele>1599.29</ele>
        <time>2020-12-17T09:44:27Z</time>
      </trkpt>
      <trkpt lat="44.97922" lon="5.84142">
        <ele>1601.21</ele>
        <time>2020-12-17T09:44:42Z</time>
      </trkpt>
      <trkpt lat="44.97927" lon="5.84148">
        <ele>1603.14</ele>
        <time>2020-12-17T09:44:56Z</time>
      </trkpt>
      <trkpt lat="44.97936" lon="5.84153">
        <ele>1604.58</ele>
        <time>2020-12-17T09:45:12Z</time>
      </trkpt>
      <trkpt lat="44.97945" lon="5.84156">
        <ele>1606.98</ele>
        <time>2020-12-17T09:45:29Z</time>
      </trkpt>
      <trkpt lat="44.97952" lon="5.84161">
        <ele>1608.42</ele>
        <time>2020-12-17T09:45:44Z</time>
      </trkpt>
      <trkpt lat="44.97956" lon="5.84166">
        <ele>1609.86</ele>
        <time>2020-12-17T09:45:58Z</time>
      </trkpt>
      <trkpt lat="44.97965" lon="5.84171">
        <ele>1611.79</ele>
        <time>2020-12-17T09:46:17Z</time>
      </trkpt>
      <trkpt lat="44.97974" lon="5.84177">
        <ele>1613.71</ele>
        <time>2020-12-17T09:46:33Z</time>
      </trkpt>
      <trkpt lat="44.97985" lon="5.8418">
        <ele>1615.15</ele>
        <time>2020-12-17T09:46:52Z</time>
      </trkpt>
      <trkpt lat="44.97994" lon="5.84176">
        <ele>1616.59</ele>
        <time>2020-12-17T09:47:09Z</time>
      </trkpt>
      <trkpt lat="44.98002" lon="5.84173">
        <ele>1619</ele>
        <time>2020-12-17T09:47:26Z</time>
      </trkpt>
      <trkpt lat="44.98012" lon="5.84174">
        <ele>1620.92</ele>
        <time>2020-12-17T09:47:45Z</time>
      </trkpt>
      <trkpt lat="44.98022" lon="5.84176">
        <ele>1622.84</ele>
        <time>2020-12-17T09:48:03Z</time>
      </trkpt>
      <trkpt lat="44.98032" lon="5.8418">
        <ele>1624.77</ele>
        <time>2020-12-17T09:48:19Z</time>
      </trkpt>
      <trkpt lat="44.98044" lon="5.84182">
        <ele>1626.69</ele>
        <time>2020-12-17T09:48:39Z</time>
      </trkpt>
      <trkpt lat="44.98051" lon="5.84184">
        <ele>1628.61</ele>
        <time>2020-12-17T09:48:56Z</time>
      </trkpt>
      <trkpt lat="44.98057" lon="5.84187">
        <ele>1629.57</ele>
        <time>2020-12-17T09:49:12Z</time>
      </trkpt>
      <trkpt lat="44.98063" lon="5.84191">
        <ele>1631.49</ele>
        <time>2020-12-17T09:49:29Z</time>
      </trkpt>
      <trkpt lat="44.98069" lon="5.84198">
        <ele>1633.9</ele>
        <time>2020-12-17T09:49:48Z</time>
      </trkpt>
      <trkpt lat="44.98074" lon="5.84207">
        <ele>1635.34</ele>
        <time>2020-12-17T09:50:05Z</time>
      </trkpt>
      <trkpt lat="44.9808" lon="5.84215">
        <ele>1637.26</ele>
        <time>2020-12-17T09:50:21Z</time>
      </trkpt>
      <trkpt lat="44.98082" lon="5.84227">
        <ele>1639.19</ele>
        <time>2020-12-17T09:50:40Z</time>
      </trkpt>
      <trkpt lat="44.98088" lon="5.84235">
        <ele>1641.59</ele>
        <time>2020-12-17T09:50:57Z</time>
      </trkpt>
      <trkpt lat="44.98089" lon="5.84248">
        <ele>1643.99</ele>
        <time>2020-12-17T09:51:18Z</time>
      </trkpt>
      <trkpt lat="44.98085" lon="5.84257">
        <ele>1645.91</ele>
        <time>2020-12-17T09:51:36Z</time>
      </trkpt>
      <trkpt lat="44.98088" lon="5.84262">
        <ele>1648.32</ele>
        <time>2020-12-17T09:51:56Z</time>
      </trkpt>
      <trkpt lat="44.98088" lon="5.84271">
        <ele>1651.2</ele>
        <time>2020-12-17T09:52:19Z</time>
      </trkpt>
      <trkpt lat="44.98087" lon="5.84279">
        <ele>1654.09</ele>
        <time>2020-12-17T09:52:37Z</time>
      </trkpt>
      <trkpt lat="44.98085" lon="5.84289">
        <ele>1656.97</ele>
        <time>2020-12-17T09:53:01Z</time>
      </trkpt>
      <trkpt lat="44.98091" lon="5.84294">
        <ele>1658.41</ele>
        <time>2020-12-17T09:53:15Z</time>
      </trkpt>
      <trkpt lat="44.98098" lon="5.843">
        <ele>1660.81</ele>
        <time>2020-12-17T09:53:34Z</time>
      </trkpt>
      <trkpt lat="44.98101" lon="5.84308">
        <ele>1662.74</ele>
        <time>2020-12-17T09:53:51Z</time>
      </trkpt>
      <trkpt lat="44.981" lon="5.84317">
        <ele>1664.18</ele>
        <time>2020-12-17T09:54:09Z</time>
      </trkpt>
      <trkpt lat="44.98099" lon="5.8433">
        <ele>1667.54</ele>
        <time>2020-12-17T09:54:31Z</time>
      </trkpt>
      <trkpt lat="44.98092" lon="5.84338">
        <ele>1670.43</ele>
        <time>2020-12-17T09:54:52Z</time>
      </trkpt>
      <trkpt lat="44.98092" lon="5.84342">
        <ele>1673.31</ele>
        <time>2020-12-17T09:55:16Z</time>
      </trkpt>
      <trkpt lat="44.98096" lon="5.84347">
        <ele>1674.27</ele>
        <time>2020-12-17T09:55:40Z</time>
      </trkpt>
      <trkpt lat="44.98094" lon="5.84353">
        <ele>1676.2</ele>
        <time>2020-12-17T09:56:01Z</time>
      </trkpt>
      <trkpt lat="44.98093" lon="5.84354">
        <ele>1676.2</ele>
        <time>2020-12-17T09:56:26Z</time>
      </trkpt>
      <trkpt lat="44.9809" lon="5.84358">
        <ele>1676.68</ele>
        <time>2020-12-17T09:56:47Z</time>
      </trkpt>
      <trkpt lat="44.98094" lon="5.84368">
        <ele>1679.56</ele>
        <time>2020-12-17T09:57:12Z</time>
      </trkpt>
      <trkpt lat="44.98102" lon="5.8437">
        <ele>1681</ele>
        <time>2020-12-17T09:57:29Z</time>
      </trkpt>
      <trkpt lat="44.98109" lon="5.84373">
        <ele>1683.41</ele>
        <time>2020-12-17T09:57:47Z</time>
      </trkpt>
      <trkpt lat="44.98109" lon="5.84376">
        <ele>1683.89</ele>
        <time>2020-12-17T09:58:22Z</time>
      </trkpt>
      <trkpt lat="44.98111" lon="5.84375">
        <ele>1684.37</ele>
        <time>2020-12-17T09:58:54Z</time>
      </trkpt>
      <trkpt lat="44.98118" lon="5.84378">
        <ele>1684.85</ele>
        <time>2020-12-17T09:59:09Z</time>
      </trkpt>
      <trkpt lat="44.98123" lon="5.84382">
        <ele>1686.77</ele>
        <time>2020-12-17T09:59:23Z</time>
      </trkpt>
      <trkpt lat="44.98127" lon="5.84388">
        <ele>1688.21</ele>
        <time>2020-12-17T09:59:40Z</time>
      </trkpt>
      <trkpt lat="44.98133" lon="5.8439">
        <ele>1691.1</ele>
        <time>2020-12-17T09:59:55Z</time>
      </trkpt>
      <trkpt lat="44.98137" lon="5.84393">
        <ele>1693.02</ele>
        <time>2020-12-17T10:00:09Z</time>
      </trkpt>
      <trkpt lat="44.98143" lon="5.84393">
        <ele>1695.42</ele>
        <time>2020-12-17T10:00:25Z</time>
      </trkpt>
      <trkpt lat="44.9815" lon="5.84391">
        <ele>1697.34</ele>
        <time>2020-12-17T10:00:44Z</time>
      </trkpt>
      <trkpt lat="44.98157" lon="5.84393">
        <ele>1699.27</ele>
        <time>2020-12-17T10:01:02Z</time>
      </trkpt>
      <trkpt lat="44.98162" lon="5.84397">
        <ele>1701.19</ele>
        <time>2020-12-17T10:01:18Z</time>
      </trkpt>
      <trkpt lat="44.98168" lon="5.84406">
        <ele>1703.11</ele>
        <time>2020-12-17T10:01:37Z</time>
      </trkpt>
      <trkpt lat="44.98172" lon="5.84412">
        <ele>1703.59</ele>
        <time>2020-12-17T10:01:50Z</time>
      </trkpt>
      <trkpt lat="44.98176" lon="5.84418">
        <ele>1705.04</ele>
        <time>2020-12-17T10:02:05Z</time>
      </trkpt>
      <trkpt lat="44.98182" lon="5.84425">
        <ele>1706.48</ele>
        <time>2020-12-17T10:02:23Z</time>
      </trkpt>
      <trkpt lat="44.98184" lon="5.8443">
        <ele>1707.92</ele>
        <time>2020-12-17T10:02:35Z</time>
      </trkpt>
      <trkpt lat="44.98188" lon="5.84435">
        <ele>1709.36</ele>
        <time>2020-12-17T10:02:49Z</time>
      </trkpt>
      <trkpt lat="44.9819" lon="5.84442">
        <ele>1711.28</ele>
        <time>2020-12-17T10:03:04Z</time>
      </trkpt>
      <trkpt lat="44.98194" lon="5.84449">
        <ele>1714.17</ele>
        <time>2020-12-17T10:03:20Z</time>
      </trkpt>
      <trkpt lat="44.98196" lon="5.84457">
        <ele>1717.05</ele>
        <time>2020-12-17T10:03:42Z</time>
      </trkpt>
      <trkpt lat="44.98198" lon="5.84462">
        <ele>1718.49</ele>
        <time>2020-12-17T10:04:05Z</time>
      </trkpt>
      <trkpt lat="44.98205" lon="5.84467">
        <ele>1720.42</ele>
        <time>2020-12-17T10:04:21Z</time>
      </trkpt>
      <trkpt lat="44.98208" lon="5.84477">
        <ele>1721.38</ele>
        <time>2020-12-17T10:04:39Z</time>
      </trkpt>
      <trkpt lat="44.98207" lon="5.84477">
        <ele>1721.86</ele>
        <time>2020-12-17T10:05:10Z</time>
      </trkpt>
      <trkpt lat="44.98208" lon="5.84477">
        <ele>1721.86</ele>
        <time>2020-12-17T10:05:48Z</time>
      </trkpt>
      <trkpt lat="44.98208" lon="5.84478">
        <ele>1721.86</ele>
        <time>2020-12-17T10:06:10Z</time>
      </trkpt>
      <trkpt lat="44.98209" lon="5.84479">
        <ele>1721.86</ele>
        <time>2020-12-17T10:06:41Z</time>
      </trkpt>
      <trkpt lat="44.98208" lon="5.84478">
        <ele>1721.86</ele>
        <time>2020-12-17T10:06:57Z</time>
      </trkpt>
      <trkpt lat="44.98209" lon="5.84478">
        <ele>1721.86</ele>
        <time>2020-12-17T10:07:21Z</time>
      </trkpt>
      <trkpt lat="44.98209" lon="5.84477">
        <ele>1721.86</ele>
        <time>2020-12-17T10:07:47Z</time>
      </trkpt>
      <trkpt lat="44.98209" lon="5.84476">
        <ele>1721.86</ele>
        <time>2020-12-17T10:08:23Z</time>
      </trkpt>
      <trkpt lat="44.98208" lon="5.84476">
        <ele>1721.86</ele>
        <time>2020-12-17T10:09:06Z</time>
      </trkpt>
      <trkpt lat="44.98208" lon="5.84476">
        <ele>1721.86</ele>
        <time>2020-12-17T10:09:34Z</time>
      </trkpt>
      <trkpt lat="44.98208" lon="5.84476">
        <ele>1721.86</ele>
        <time>2020-12-17T10:09:59Z</time>
      </trkpt>
      <trkpt lat="44.98208" lon="5.84477">
        <ele>1721.86</ele>
        <time>2020-12-17T10:10:36Z</time>
      </trkpt>
      <trkpt lat="44.98208" lon="5.84476">
        <ele>1721.86</ele>
        <time>2020-12-17T10:11:10Z</time>
      </trkpt>
      <trkpt lat="44.98208" lon="5.84475">
        <ele>1721.86</ele>
        <time>2020-12-17T10:11:47Z</time>
      </trkpt>
      <trkpt lat="44.98207" lon="5.84476">
        <ele>1721.86</ele>
        <time>2020-12-17T10:12:46Z</time>
      </trkpt>
      <trkpt lat="44.9821" lon="5.84481">
        <ele>1721.86</ele>
        <time>2020-12-17T10:13:17Z</time>
      </trkpt>
      <trkpt lat="44.98213" lon="5.84482">
        <ele>1721.86</ele>
        <time>2020-12-17T10:13:37Z</time>
      </trkpt>
      <trkpt lat="44.98215" lon="5.84483">
        <ele>1721.86</ele>
        <time>2020-12-17T10:13:40Z</time>
      </trkpt>
      <trkpt lat="44.98223" lon="5.84488">
        <ele>1718.97</ele>
        <time>2020-12-17T10:13:53Z</time>
      </trkpt>
      <trkpt lat="44.9823" lon="5.84491">
        <ele>1717.53</ele>
        <time>2020-12-17T10:14:12Z</time>
      </trkpt>
      <trkpt lat="44.98241" lon="5.84496">
        <ele>1716.57</ele>
        <time>2020-12-17T10:14:28Z</time>
      </trkpt>
      <trkpt lat="44.98253" lon="5.84501">
        <ele>1717.53</ele>
        <time>2020-12-17T10:14:45Z</time>
      </trkpt>
      <trkpt lat="44.98262" lon="5.84509">
        <ele>1717.53</ele>
        <time>2020-12-17T10:14:58Z</time>
      </trkpt>
      <trkpt lat="44.98272" lon="5.8452">
        <ele>1716.57</ele>
        <time>2020-12-17T10:15:13Z</time>
      </trkpt>
      <trkpt lat="44.98281" lon="5.84531">
        <ele>1716.57</ele>
        <time>2020-12-17T10:15:29Z</time>
      </trkpt>
      <trkpt lat="44.98289" lon="5.84539">
        <ele>1717.05</ele>
        <time>2020-12-17T10:15:47Z</time>
      </trkpt>
      <trkpt lat="44.98295" lon="5.84543">
        <ele>1718.97</ele>
        <time>2020-12-17T10:16:05Z</time>
      </trkpt>
      <trkpt lat="44.98299" lon="5.84552">
        <ele>1721.86</ele>
        <time>2020-12-17T10:16:24Z</time>
      </trkpt>
      <trkpt lat="44.98308" lon="5.84557">
        <ele>1723.78</ele>
        <time>2020-12-17T10:16:40Z</time>
      </trkpt>
      <trkpt lat="44.98316" lon="5.84561">
        <ele>1723.78</ele>
        <time>2020-12-17T10:16:50Z</time>
      </trkpt>
      <trkpt lat="44.98328" lon="5.84562">
        <ele>1723.78</ele>
        <time>2020-12-17T10:17:05Z</time>
      </trkpt>
      <trkpt lat="44.98338" lon="5.84563">
        <ele>1723.78</ele>
        <time>2020-12-17T10:17:21Z</time>
      </trkpt>
      <trkpt lat="44.98344" lon="5.84565">
        <ele>1724.26</ele>
        <time>2020-12-17T10:17:37Z</time>
      </trkpt>
      <trkpt lat="44.98346" lon="5.84559">
        <ele>1723.78</ele>
        <time>2020-12-17T10:17:53Z</time>
      </trkpt>
      <trkpt lat="44.98344" lon="5.84552">
        <ele>1722.82</ele>
        <time>2020-12-17T10:18:05Z</time>
      </trkpt>
      <trkpt lat="44.98344" lon="5.84551">
        <ele>1722.34</ele>
        <time>2020-12-17T10:18:12Z</time>
      </trkpt>
      <trkpt lat="44.98341" lon="5.84549">
        <ele>1721.38</ele>
        <time>2020-12-17T10:18:24Z</time>
      </trkpt>
      <trkpt lat="44.9834" lon="5.84555">
        <ele>1720.9</ele>
        <time>2020-12-17T10:18:37Z</time>
      </trkpt>
      <trkpt lat="44.98335" lon="5.84561">
        <ele>1721.86</ele>
        <time>2020-12-17T10:18:47Z</time>
      </trkpt>
      <trkpt lat="44.98319" lon="5.84566">
        <ele>1722.82</ele>
        <time>2020-12-17T10:19:05Z</time>
      </trkpt>
      <trkpt lat="44.98304" lon="5.84559">
        <ele>1723.3</ele>
        <time>2020-12-17T10:19:23Z</time>
      </trkpt>
      <trkpt lat="44.98294" lon="5.84551">
        <ele>1723.3</ele>
        <time>2020-12-17T10:19:37Z</time>
      </trkpt>
      <trkpt lat="44.98289" lon="5.84543">
        <ele>1721.86</ele>
        <time>2020-12-17T10:19:48Z</time>
      </trkpt>
      <trkpt lat="44.98288" lon="5.84534">
        <ele>1718.97</ele>
        <time>2020-12-17T10:20:03Z</time>
      </trkpt>
      <trkpt lat="44.98286" lon="5.84537">
        <ele>1718.01</ele>
        <time>2020-12-17T10:20:21Z</time>
      </trkpt>
      <trkpt lat="44.98287" lon="5.84534">
        <ele>1718.49</ele>
        <time>2020-12-17T10:20:37Z</time>
      </trkpt>
      <trkpt lat="44.98292" lon="5.84524">
        <ele>1718.01</ele>
        <time>2020-12-17T10:20:50Z</time>
      </trkpt>
      <trkpt lat="44.98302" lon="5.8452">
        <ele>1716.57</ele>
        <time>2020-12-17T10:21:04Z</time>
      </trkpt>
      <trkpt lat="44.98304" lon="5.84518">
        <ele>1716.57</ele>
        <time>2020-12-17T10:21:07Z</time>
      </trkpt>
      <trkpt lat="44.98316" lon="5.84509">
        <ele>1714.17</ele>
        <time>2020-12-17T10:21:24Z</time>
      </trkpt>
      <trkpt lat="44.98324" lon="5.84507">
        <ele>1711.76</ele>
        <time>2020-12-17T10:21:40Z</time>
      </trkpt>
      <trkpt lat="44.98332" lon="5.84506">
        <ele>1711.28</ele>
        <time>2020-12-17T10:21:56Z</time>
      </trkpt>
      <trkpt lat="44.98335" lon="5.84505">
        <ele>1710.8</ele>
        <time>2020-12-17T10:22:19Z</time>
      </trkpt>
      <trkpt lat="44.98336" lon="5.84505">
        <ele>1710.8</ele>
        <time>2020-12-17T10:22:40Z</time>
      </trkpt>
      <trkpt lat="44.98344" lon="5.84502">
        <ele>1710.32</ele>
        <time>2020-12-17T10:22:55Z</time>
      </trkpt>
      <trkpt lat="44.98351" lon="5.84502">
        <ele>1710.32</ele>
        <time>2020-12-17T10:23:10Z</time>
      </trkpt>
      <trkpt lat="44.98353" lon="5.84501">
        <ele>1710.8</ele>
        <time>2020-12-17T10:23:13Z</time>
      </trkpt>
      <trkpt lat="44.9836" lon="5.84501">
        <ele>1710.8</ele>
        <time>2020-12-17T10:23:29Z</time>
      </trkpt>
      <trkpt lat="44.98368" lon="5.84499">
        <ele>1710.8</ele>
        <time>2020-12-17T10:23:49Z</time>
      </trkpt>
      <trkpt lat="44.98378" lon="5.84498">
        <ele>1711.76</ele>
        <time>2020-12-17T10:24:05Z</time>
      </trkpt>
      <trkpt lat="44.98389" lon="5.84497">
        <ele>1712.73</ele>
        <time>2020-12-17T10:24:21Z</time>
      </trkpt>
      <trkpt lat="44.9839" lon="5.84498">
        <ele>1713.21</ele>
        <time>2020-12-17T10:24:39Z</time>
      </trkpt>
      <trkpt lat="44.98392" lon="5.845">
        <ele>1712.73</ele>
        <time>2020-12-17T10:24:57Z</time>
      </trkpt>
      <trkpt lat="44.98395" lon="5.84498">
        <ele>1712.73</ele>
        <time>2020-12-17T10:25:34Z</time>
      </trkpt>
      <trkpt lat="44.98402" lon="5.84502">
        <ele>1712.25</ele>
        <time>2020-12-17T10:25:43Z</time>
      </trkpt>
      <trkpt lat="44.98409" lon="5.84504">
        <ele>1711.76</ele>
        <time>2020-12-17T10:25:59Z</time>
      </trkpt>
      <trkpt lat="44.98413" lon="5.84506">
        <ele>1711.28</ele>
        <time>2020-12-17T10:26:04Z</time>
      </trkpt>
      <trkpt lat="44.98425" lon="5.84515">
        <ele>1710.32</ele>
        <time>2020-12-17T10:26:20Z</time>
      </trkpt>
      <trkpt lat="44.98436" lon="5.84524">
        <ele>1708.88</ele>
        <time>2020-12-17T10:26:36Z</time>
      </trkpt>
      <trkpt lat="44.98451" lon="5.84531">
        <ele>1707.44</ele>
        <time>2020-12-17T10:26:54Z</time>
      </trkpt>
      <trkpt lat="44.98464" lon="5.84533">
        <ele>1707.44</ele>
        <time>2020-12-17T10:27:10Z</time>
      </trkpt>
      <trkpt lat="44.98478" lon="5.84536">
        <ele>1706.96</ele>
        <time>2020-12-17T10:27:29Z</time>
      </trkpt>
      <trkpt lat="44.98486" lon="5.84535">
        <ele>1706</ele>
        <time>2020-12-17T10:27:44Z</time>
      </trkpt>
      <trkpt lat="44.98486" lon="5.84535">
        <ele>1705.04</ele>
        <time>2020-12-17T10:28:08Z</time>
      </trkpt>
      <trkpt lat="44.98489" lon="5.84533">
        <ele>1705.52</ele>
        <time>2020-12-17T10:28:27Z</time>
      </trkpt>
      <trkpt lat="44.98497" lon="5.84539">
        <ele>1706.48</ele>
        <time>2020-12-17T10:28:44Z</time>
      </trkpt>
      <trkpt lat="44.98501" lon="5.84544">
        <ele>1707.44</ele>
        <time>2020-12-17T10:29:00Z</time>
      </trkpt>
      <trkpt lat="44.98508" lon="5.84545">
        <ele>1707.92</ele>
        <time>2020-12-17T10:29:19Z</time>
      </trkpt>
      <trkpt lat="44.98514" lon="5.84551">
        <ele>1708.88</ele>
        <time>2020-12-17T10:29:36Z</time>
      </trkpt>
      <trkpt lat="44.98524" lon="5.84563">
        <ele>1709.84</ele>
        <time>2020-12-17T10:29:57Z</time>
      </trkpt>
      <trkpt lat="44.98525" lon="5.84564">
        <ele>1710.8</ele>
        <time>2020-12-17T10:30:20Z</time>
      </trkpt>
      <trkpt lat="44.98527" lon="5.84565">
        <ele>1710.8</ele>
        <time>2020-12-17T10:30:41Z</time>
      </trkpt>
      <trkpt lat="44.98534" lon="5.84571">
        <ele>1711.28</ele>
        <time>2020-12-17T10:31:06Z</time>
      </trkpt>
      <trkpt lat="44.98545" lon="5.84578">
        <ele>1712.73</ele>
        <time>2020-12-17T10:31:24Z</time>
      </trkpt>
      <trkpt lat="44.98556" lon="5.84586">
        <ele>1714.17</ele>
        <time>2020-12-17T10:31:43Z</time>
      </trkpt>
      <trkpt lat="44.98566" lon="5.84593">
        <ele>1715.61</ele>
        <time>2020-12-17T10:32:02Z</time>
      </trkpt>
      <trkpt lat="44.98574" lon="5.84599">
        <ele>1716.57</ele>
        <time>2020-12-17T10:32:17Z</time>
      </trkpt>
      <trkpt lat="44.98583" lon="5.84608">
        <ele>1718.01</ele>
        <time>2020-12-17T10:32:33Z</time>
      </trkpt>
      <trkpt lat="44.9859" lon="5.84615">
        <ele>1719.46</ele>
        <time>2020-12-17T10:32:49Z</time>
      </trkpt>
      <trkpt lat="44.98599" lon="5.84622">
        <ele>1722.34</ele>
        <time>2020-12-17T10:33:09Z</time>
      </trkpt>
      <trkpt lat="44.98604" lon="5.84631">
        <ele>1723.78</ele>
        <time>2020-12-17T10:33:24Z</time>
      </trkpt>
      <trkpt lat="44.98608" lon="5.84648">
        <ele>1725.22</ele>
        <time>2020-12-17T10:33:45Z</time>
      </trkpt>
      <trkpt lat="44.98607" lon="5.8466">
        <ele>1726.18</ele>
        <time>2020-12-17T10:34:01Z</time>
      </trkpt>
      <trkpt lat="44.98608" lon="5.84672">
        <ele>1728.11</ele>
        <time>2020-12-17T10:34:17Z</time>
      </trkpt>
      <trkpt lat="44.98613" lon="5.84685">
        <ele>1730.03</ele>
        <time>2020-12-17T10:34:37Z</time>
      </trkpt>
      <trkpt lat="44.98618" lon="5.84697">
        <ele>1730.99</ele>
        <time>2020-12-17T10:34:53Z</time>
      </trkpt>
      <trkpt lat="44.98623" lon="5.84707">
        <ele>1732.43</ele>
        <time>2020-12-17T10:35:09Z</time>
      </trkpt>
      <trkpt lat="44.98626" lon="5.84719">
        <ele>1733.39</ele>
        <time>2020-12-17T10:35:26Z</time>
      </trkpt>
      <trkpt lat="44.98634" lon="5.84728">
        <ele>1734.36</ele>
        <time>2020-12-17T10:35:43Z</time>
      </trkpt>
      <trkpt lat="44.98641" lon="5.84738">
        <ele>1734.84</ele>
        <time>2020-12-17T10:36:00Z</time>
      </trkpt>
      <trkpt lat="44.98648" lon="5.84744">
        <ele>1736.76</ele>
        <time>2020-12-17T10:36:18Z</time>
      </trkpt>
      <trkpt lat="44.98655" lon="5.84752">
        <ele>1738.68</ele>
        <time>2020-12-17T10:36:34Z</time>
      </trkpt>
      <trkpt lat="44.98661" lon="5.84758">
        <ele>1740.6</ele>
        <time>2020-12-17T10:36:50Z</time>
      </trkpt>
      <trkpt lat="44.98667" lon="5.84768">
        <ele>1743.01</ele>
        <time>2020-12-17T10:37:10Z</time>
      </trkpt>
      <trkpt lat="44.98674" lon="5.8478">
        <ele>1744.93</ele>
        <time>2020-12-17T10:37:28Z</time>
      </trkpt>
      <trkpt lat="44.98682" lon="5.84789">
        <ele>1745.89</ele>
        <time>2020-12-17T10:37:45Z</time>
      </trkpt>
      <trkpt lat="44.98689" lon="5.84798">
        <ele>1746.85</ele>
        <time>2020-12-17T10:38:01Z</time>
      </trkpt>
      <trkpt lat="44.98695" lon="5.84809">
        <ele>1748.29</ele>
        <time>2020-12-17T10:38:17Z</time>
      </trkpt>
      <trkpt lat="44.98702" lon="5.84817">
        <ele>1749.74</ele>
        <time>2020-12-17T10:38:34Z</time>
      </trkpt>
      <trkpt lat="44.98709" lon="5.84823">
        <ele>1751.18</ele>
        <time>2020-12-17T10:38:49Z</time>
      </trkpt>
      <trkpt lat="44.98718" lon="5.84828">
        <ele>1753.58</ele>
        <time>2020-12-17T10:39:08Z</time>
      </trkpt>
      <trkpt lat="44.98725" lon="5.84831">
        <ele>1756.47</ele>
        <time>2020-12-17T10:39:26Z</time>
      </trkpt>
      <trkpt lat="44.98731" lon="5.84836">
        <ele>1758.87</ele>
        <time>2020-12-17T10:39:42Z</time>
      </trkpt>
      <trkpt lat="44.98737" lon="5.84842">
        <ele>1761.27</ele>
        <time>2020-12-17T10:39:58Z</time>
      </trkpt>
      <trkpt lat="44.98743" lon="5.84849">
        <ele>1764.64</ele>
        <time>2020-12-17T10:40:16Z</time>
      </trkpt>
      <trkpt lat="44.98748" lon="5.84854">
        <ele>1767.04</ele>
        <time>2020-12-17T10:40:32Z</time>
      </trkpt>
      <trkpt lat="44.98755" lon="5.8486">
        <ele>1769.92</ele>
        <time>2020-12-17T10:40:53Z</time>
      </trkpt>
      <trkpt lat="44.9876" lon="5.84868">
        <ele>1772.81</ele>
        <time>2020-12-17T10:41:12Z</time>
      </trkpt>
      <trkpt lat="44.98765" lon="5.84872">
        <ele>1775.69</ele>
        <time>2020-12-17T10:41:32Z</time>
      </trkpt>
      <trkpt lat="44.98769" lon="5.84877">
        <ele>1778.58</ele>
        <time>2020-12-17T10:41:51Z</time>
      </trkpt>
      <trkpt lat="44.98775" lon="5.84882">
        <ele>1781.46</ele>
        <time>2020-12-17T10:42:13Z</time>
      </trkpt>
      <trkpt lat="44.98781" lon="5.84886">
        <ele>1784.82</ele>
        <time>2020-12-17T10:42:33Z</time>
      </trkpt>
      <trkpt lat="44.98785" lon="5.84889">
        <ele>1787.71</ele>
        <time>2020-12-17T10:42:49Z</time>
      </trkpt>
      <trkpt lat="44.98791" lon="5.84889">
        <ele>1790.11</ele>
        <time>2020-12-17T10:43:07Z</time>
      </trkpt>
      <trkpt lat="44.98795" lon="5.84892">
        <ele>1792.03</ele>
        <time>2020-12-17T10:43:23Z</time>
      </trkpt>
      <trkpt lat="44.98799" lon="5.849">
        <ele>1795.4</ele>
        <time>2020-12-17T10:43:42Z</time>
      </trkpt>
      <trkpt lat="44.98804" lon="5.849">
        <ele>1798.28</ele>
        <time>2020-12-17T10:44:02Z</time>
      </trkpt>
      <trkpt lat="44.98809" lon="5.849">
        <ele>1800.21</ele>
        <time>2020-12-17T10:44:18Z</time>
      </trkpt>
      <trkpt lat="44.98814" lon="5.84903">
        <ele>1802.61</ele>
        <time>2020-12-17T10:44:35Z</time>
      </trkpt>
      <trkpt lat="44.98818" lon="5.84905">
        <ele>1805.01</ele>
        <time>2020-12-17T10:44:51Z</time>
      </trkpt>
      <trkpt lat="44.98822" lon="5.8491">
        <ele>1807.9</ele>
        <time>2020-12-17T10:45:10Z</time>
      </trkpt>
      <trkpt lat="44.98825" lon="5.84915">
        <ele>1810.78</ele>
        <time>2020-12-17T10:45:28Z</time>
      </trkpt>
      <trkpt lat="44.9883" lon="5.84917">
        <ele>1813.18</ele>
        <time>2020-12-17T10:45:44Z</time>
      </trkpt>
      <trkpt lat="44.98835" lon="5.84913">
        <ele>1816.55</ele>
        <time>2020-12-17T10:46:03Z</time>
      </trkpt>
      <trkpt lat="44.98839" lon="5.84911">
        <ele>1818.47</ele>
        <time>2020-12-17T10:46:16Z</time>
      </trkpt>
      <trkpt lat="44.98843" lon="5.84914">
        <ele>1821.35</ele>
        <time>2020-12-17T10:46:32Z</time>
      </trkpt>
      <trkpt lat="44.98847" lon="5.84917">
        <ele>1823.76</ele>
        <time>2020-12-17T10:46:45Z</time>
      </trkpt>
      <trkpt lat="44.98851" lon="5.84922">
        <ele>1826.64</ele>
        <time>2020-12-17T10:47:00Z</time>
      </trkpt>
      <trkpt lat="44.98854" lon="5.8493">
        <ele>1829.53</ele>
        <time>2020-12-17T10:47:17Z</time>
      </trkpt>
      <trkpt lat="44.98859" lon="5.84939">
        <ele>1832.41</ele>
        <time>2020-12-17T10:47:34Z</time>
      </trkpt>
      <trkpt lat="44.98866" lon="5.84951">
        <ele>1832.89</ele>
        <time>2020-12-17T10:47:49Z</time>
      </trkpt>
      <trkpt lat="44.98866" lon="5.84951">
        <ele>1831.93</ele>
        <time>2020-12-17T10:48:03Z</time>
      </trkpt>
      <trkpt lat="44.98864" lon="5.84961">
        <ele>1832.41</ele>
        <time>2020-12-17T10:48:20Z</time>
      </trkpt>
      <trkpt lat="44.98867" lon="5.84971">
        <ele>1832.41</ele>
        <time>2020-12-17T10:48:37Z</time>
      </trkpt>
      <trkpt lat="44.98864" lon="5.84959">
        <ele>1831.45</ele>
        <time>2020-12-17T10:48:51Z</time>
      </trkpt>
      <trkpt lat="44.98863" lon="5.84957">
        <ele>1831.45</ele>
        <time>2020-12-17T10:49:07Z</time>
      </trkpt>
      <trkpt lat="44.98859" lon="5.84955">
        <ele>1831.45</ele>
        <time>2020-12-17T10:49:24Z</time>
      </trkpt>
      <trkpt lat="44.9886" lon="5.84954">
        <ele>1831.45</ele>
        <time>2020-12-17T10:49:46Z</time>
      </trkpt>
      <trkpt lat="44.98861" lon="5.84953">
        <ele>1831.45</ele>
        <time>2020-12-17T10:50:17Z</time>
      </trkpt>
      <trkpt lat="44.98861" lon="5.84952">
        <ele>1831.45</ele>
        <time>2020-12-17T10:50:36Z</time>
      </trkpt>
      <trkpt lat="44.98861" lon="5.84949">
        <ele>1831.45</ele>
        <time>2020-12-17T10:51:20Z</time>
      </trkpt>
      <trkpt lat="44.98866" lon="5.84942">
        <ele>1831.45</ele>
        <time>2020-12-17T10:51:39Z</time>
      </trkpt>
      <trkpt lat="44.98875" lon="5.84933">
        <ele>1831.45</ele>
        <time>2020-12-17T10:51:56Z</time>
      </trkpt>
      <trkpt lat="44.98876" lon="5.8493">
        <ele>1834.81</ele>
        <time>2020-12-17T10:52:05Z</time>
      </trkpt>
      <trkpt lat="44.98876" lon="5.8493">
        <ele>1835.29</ele>
        <time>2020-12-17T10:52:06Z</time>
      </trkpt>
      <trkpt lat="44.98879" lon="5.84928">
        <ele>1836.74</ele>
        <time>2020-12-17T10:52:25Z</time>
      </trkpt>
      <trkpt lat="44.98882" lon="5.84923">
        <ele>1839.62</ele>
        <time>2020-12-17T10:52:45Z</time>
      </trkpt>
      <trkpt lat="44.98885" lon="5.84916">
        <ele>1841.06</ele>
        <time>2020-12-17T10:53:05Z</time>
      </trkpt>
      <trkpt lat="44.98887" lon="5.8491">
        <ele>1844.43</ele>
        <time>2020-12-17T10:53:26Z</time>
      </trkpt>
      <trkpt lat="44.98889" lon="5.84905">
        <ele>1847.31</ele>
        <time>2020-12-17T10:53:46Z</time>
      </trkpt>
      <trkpt lat="44.9889" lon="5.84898">
        <ele>1850.19</ele>
        <time>2020-12-17T10:54:07Z</time>
      </trkpt>
      <trkpt lat="44.98892" lon="5.84892">
        <ele>1853.08</ele>
        <time>2020-12-17T10:54:28Z</time>
      </trkpt>
      <trkpt lat="44.98894" lon="5.84888">
        <ele>1855</ele>
        <time>2020-12-17T10:54:43Z</time>
      </trkpt>
      <trkpt lat="44.98897" lon="5.84882">
        <ele>1857.89</ele>
        <time>2020-12-17T10:55:04Z</time>
      </trkpt>
      <trkpt lat="44.98899" lon="5.84878">
        <ele>1859.81</ele>
        <time>2020-12-17T10:55:18Z</time>
      </trkpt>
      <trkpt lat="44.98902" lon="5.84872">
        <ele>1861.25</ele>
        <time>2020-12-17T10:55:35Z</time>
      </trkpt>
      <trkpt lat="44.98904" lon="5.84869">
        <ele>1863.17</ele>
        <time>2020-12-17T10:55:54Z</time>
      </trkpt>
      <trkpt lat="44.98906" lon="5.84864">
        <ele>1865.09</ele>
        <time>2020-12-17T10:56:12Z</time>
      </trkpt>
      <trkpt lat="44.98908" lon="5.84862">
        <ele>1866.54</ele>
        <time>2020-12-17T10:56:32Z</time>
      </trkpt>
      <trkpt lat="44.9891" lon="5.84858">
        <ele>1867.98</ele>
        <time>2020-12-17T10:56:50Z</time>
      </trkpt>
      <trkpt lat="44.98911" lon="5.84856">
        <ele>1868.94</ele>
        <time>2020-12-17T10:57:10Z</time>
      </trkpt>
      <trkpt lat="44.98912" lon="5.84853">
        <ele>1870.38</ele>
        <time>2020-12-17T10:57:28Z</time>
      </trkpt>
      <trkpt lat="44.98916" lon="5.84849">
        <ele>1872.3</ele>
        <time>2020-12-17T10:57:47Z</time>
      </trkpt>
      <trkpt lat="44.98917" lon="5.84846">
        <ele>1873.75</ele>
        <time>2020-12-17T10:58:05Z</time>
      </trkpt>
      <trkpt lat="44.98919" lon="5.84843">
        <ele>1875.19</ele>
        <time>2020-12-17T10:58:21Z</time>
      </trkpt>
      <trkpt lat="44.98921" lon="5.84843">
        <ele>1876.15</ele>
        <time>2020-12-17T10:58:38Z</time>
      </trkpt>
      <trkpt lat="44.98926" lon="5.84838">
        <ele>1876.63</ele>
        <time>2020-12-17T10:58:58Z</time>
      </trkpt>
      <trkpt lat="44.98926" lon="5.84838">
        <ele>1878.07</ele>
        <time>2020-12-17T10:59:14Z</time>
      </trkpt>
      <trkpt lat="44.98928" lon="5.84833">
        <ele>1879.51</ele>
        <time>2020-12-17T10:59:40Z</time>
      </trkpt>
      <trkpt lat="44.9893" lon="5.84828">
        <ele>1881.44</ele>
        <time>2020-12-17T10:59:57Z</time>
      </trkpt>
      <trkpt lat="44.98931" lon="5.84825">
        <ele>1882.4</ele>
        <time>2020-12-17T11:00:19Z</time>
      </trkpt>
      <trkpt lat="44.98936" lon="5.84818">
        <ele>1885.28</ele>
        <time>2020-12-17T11:00:42Z</time>
      </trkpt>
      <trkpt lat="44.98939" lon="5.84811">
        <ele>1887.69</ele>
        <time>2020-12-17T11:01:04Z</time>
      </trkpt>
      <trkpt lat="44.98941" lon="5.84807">
        <ele>1890.09</ele>
        <time>2020-12-17T11:01:21Z</time>
      </trkpt>
      <trkpt lat="44.98945" lon="5.84802">
        <ele>1891.05</ele>
        <time>2020-12-17T11:01:53Z</time>
      </trkpt>
      <trkpt lat="44.98947" lon="5.84798">
        <ele>1892.49</ele>
        <time>2020-12-17T11:02:06Z</time>
      </trkpt>
      <trkpt lat="44.98949" lon="5.84793">
        <ele>1894.42</ele>
        <time>2020-12-17T11:02:19Z</time>
      </trkpt>
      <trkpt lat="44.98952" lon="5.84787">
        <ele>1896.34</ele>
        <time>2020-12-17T11:02:37Z</time>
      </trkpt>
      <trkpt lat="44.98954" lon="5.84782">
        <ele>1898.74</ele>
        <time>2020-12-17T11:02:55Z</time>
      </trkpt>
      <trkpt lat="44.98955" lon="5.84779">
        <ele>1900.18</ele>
        <time>2020-12-17T11:03:11Z</time>
      </trkpt>
      <trkpt lat="44.98956" lon="5.84773">
        <ele>1902.11</ele>
        <time>2020-12-17T11:03:30Z</time>
      </trkpt>
      <trkpt lat="44.98959" lon="5.84768">
        <ele>1904.99</ele>
        <time>2020-12-17T11:03:51Z</time>
      </trkpt>
      <trkpt lat="44.9896" lon="5.84765">
        <ele>1906.91</ele>
        <time>2020-12-17T11:04:14Z</time>
      </trkpt>
      <trkpt lat="44.98964" lon="5.84758">
        <ele>1908.83</ele>
        <time>2020-12-17T11:04:36Z</time>
      </trkpt>
      <trkpt lat="44.98966" lon="5.84753">
        <ele>1910.76</ele>
        <time>2020-12-17T11:04:54Z</time>
      </trkpt>
      <trkpt lat="44.98967" lon="5.84748">
        <ele>1913.16</ele>
        <time>2020-12-17T11:05:15Z</time>
      </trkpt>
      <trkpt lat="44.98969" lon="5.84746">
        <ele>1915.08</ele>
        <time>2020-12-17T11:05:44Z</time>
      </trkpt>
      <trkpt lat="44.98974" lon="5.84739">
        <ele>1917.97</ele>
        <time>2020-12-17T11:06:07Z</time>
      </trkpt>
      <trkpt lat="44.98976" lon="5.84736">
        <ele>1919.89</ele>
        <time>2020-12-17T11:06:26Z</time>
      </trkpt>
      <trkpt lat="44.98976" lon="5.84736">
        <ele>1920.37</ele>
        <time>2020-12-17T11:06:56Z</time>
      </trkpt>
      <trkpt lat="44.98976" lon="5.84733">
        <ele>1921.33</ele>
        <time>2020-12-17T11:07:13Z</time>
      </trkpt>
      <trkpt lat="44.98978" lon="5.84731">
        <ele>1922.29</ele>
        <time>2020-12-17T11:07:33Z</time>
      </trkpt>
      <trkpt lat="44.98981" lon="5.8473">
        <ele>1922.77</ele>
        <time>2020-12-17T11:07:51Z</time>
      </trkpt>
      <trkpt lat="44.9898" lon="5.84729">
        <ele>1922.77</ele>
        <time>2020-12-17T11:08:16Z</time>
      </trkpt>
      <trkpt lat="44.98981" lon="5.84729">
        <ele>1922.77</ele>
        <time>2020-12-17T11:08:35Z</time>
      </trkpt>
      <trkpt lat="44.9898" lon="5.84729">
        <ele>1922.77</ele>
        <time>2020-12-17T11:09:03Z</time>
      </trkpt>
      <trkpt lat="44.98977" lon="5.8473">
        <ele>1922.77</ele>
        <time>2020-12-17T11:09:18Z</time>
      </trkpt>
      <trkpt lat="44.98977" lon="5.84732">
        <ele>1922.77</ele>
        <time>2020-12-17T11:09:43Z</time>
      </trkpt>
      <trkpt lat="44.98974" lon="5.84734">
        <ele>1922.77</ele>
        <time>2020-12-17T11:09:57Z</time>
      </trkpt>
      <trkpt lat="44.98975" lon="5.84734">
        <ele>1922.77</ele>
        <time>2020-12-17T11:10:23Z</time>
      </trkpt>
      <trkpt lat="44.98972" lon="5.84738">
        <ele>1922.77</ele>
        <time>2020-12-17T11:10:37Z</time>
      </trkpt>
      <trkpt lat="44.98971" lon="5.84741">
        <ele>1922.77</ele>
        <time>2020-12-17T11:11:00Z</time>
      </trkpt>
      <trkpt lat="44.98968" lon="5.84747">
        <ele>1922.77</ele>
        <time>2020-12-17T11:11:14Z</time>
      </trkpt>
      <trkpt lat="44.98966" lon="5.84751">
        <ele>1915.56</ele>
        <time>2020-12-17T11:11:25Z</time>
      </trkpt>
      <trkpt lat="44.98966" lon="5.84752">
        <ele>1915.56</ele>
        <time>2020-12-17T11:11:26Z</time>
      </trkpt>
      <trkpt lat="44.98965" lon="5.84754">
        <ele>1914.12</ele>
        <time>2020-12-17T11:11:49Z</time>
      </trkpt>
      <trkpt lat="44.98961" lon="5.84761">
        <ele>1911.72</ele>
        <time>2020-12-17T11:12:05Z</time>
      </trkpt>
      <trkpt lat="44.9896" lon="5.84766">
        <ele>1909.8</ele>
        <time>2020-12-17T11:12:22Z</time>
      </trkpt>
      <trkpt lat="44.98958" lon="5.84773">
        <ele>1906.91</ele>
        <time>2020-12-17T11:12:38Z</time>
      </trkpt>
      <trkpt lat="44.98956" lon="5.84779">
        <ele>1904.51</ele>
        <time>2020-12-17T11:12:53Z</time>
      </trkpt>
      <trkpt lat="44.98955" lon="5.8478">
        <ele>1902.11</ele>
        <time>2020-12-17T11:13:09Z</time>
      </trkpt>
      <trkpt lat="44.98954" lon="5.84783">
        <ele>1902.11</ele>
        <time>2020-12-17T11:13:29Z</time>
      </trkpt>
      <trkpt lat="44.98951" lon="5.84791">
        <ele>1899.7</ele>
        <time>2020-12-17T11:13:49Z</time>
      </trkpt>
      <trkpt lat="44.98948" lon="5.84797">
        <ele>1898.26</ele>
        <time>2020-12-17T11:14:01Z</time>
      </trkpt>
      <trkpt lat="44.98944" lon="5.84804">
        <ele>1897.78</ele>
        <time>2020-12-17T11:14:21Z</time>
      </trkpt>
      <trkpt lat="44.9894" lon="5.84811">
        <ele>1895.38</ele>
        <time>2020-12-17T11:14:35Z</time>
      </trkpt>
      <trkpt lat="44.98938" lon="5.84817">
        <ele>1892.49</ele>
        <time>2020-12-17T11:14:48Z</time>
      </trkpt>
      <trkpt lat="44.98934" lon="5.84821">
        <ele>1889.61</ele>
        <time>2020-12-17T11:15:16Z</time>
      </trkpt>
      <trkpt lat="44.9893" lon="5.84827">
        <ele>1887.69</ele>
        <time>2020-12-17T11:15:29Z</time>
      </trkpt>
      <trkpt lat="44.98929" lon="5.84832">
        <ele>1885.76</ele>
        <time>2020-12-17T11:16:00Z</time>
      </trkpt>
      <trkpt lat="44.98927" lon="5.84834">
        <ele>1882.88</ele>
        <time>2020-12-17T11:16:14Z</time>
      </trkpt>
      <trkpt lat="44.98925" lon="5.84838">
        <ele>1881.44</ele>
        <time>2020-12-17T11:16:28Z</time>
      </trkpt>
      <trkpt lat="44.9892" lon="5.84846">
        <ele>1880</ele>
        <time>2020-12-17T11:16:42Z</time>
      </trkpt>
      <trkpt lat="44.98918" lon="5.84849">
        <ele>1877.59</ele>
        <time>2020-12-17T11:16:58Z</time>
      </trkpt>
      <trkpt lat="44.98916" lon="5.84853">
        <ele>1875.19</ele>
        <time>2020-12-17T11:17:16Z</time>
      </trkpt>
      <trkpt lat="44.98912" lon="5.84856">
        <ele>1873.27</ele>
        <time>2020-12-17T11:17:31Z</time>
      </trkpt>
      <trkpt lat="44.98913" lon="5.84857">
        <ele>1872.79</ele>
        <time>2020-12-17T11:18:09Z</time>
      </trkpt>
      <trkpt lat="44.98912" lon="5.84858">
        <ele>1871.34</ele>
        <time>2020-12-17T11:18:29Z</time>
      </trkpt>
      <trkpt lat="44.9891" lon="5.84863">
        <ele>1870.38</ele>
        <time>2020-12-17T11:18:51Z</time>
      </trkpt>
      <trkpt lat="44.98907" lon="5.84868">
        <ele>1867.98</ele>
        <time>2020-12-17T11:19:05Z</time>
      </trkpt>
      <trkpt lat="44.98904" lon="5.84874">
        <ele>1865.09</ele>
        <time>2020-12-17T11:19:33Z</time>
      </trkpt>
      <trkpt lat="44.98901" lon="5.84881">
        <ele>1862.21</ele>
        <time>2020-12-17T11:19:47Z</time>
      </trkpt>
      <trkpt lat="44.989" lon="5.84883">
        <ele>1860.77</ele>
        <time>2020-12-17T11:20:07Z</time>
      </trkpt>
      <trkpt lat="44.98898" lon="5.84885">
        <ele>1859.81</ele>
        <time>2020-12-17T11:20:26Z</time>
      </trkpt>
      <trkpt lat="44.98895" lon="5.84889">
        <ele>1858.37</ele>
        <time>2020-12-17T11:20:47Z</time>
      </trkpt>
      <trkpt lat="44.98893" lon="5.84896">
        <ele>1855.48</ele>
        <time>2020-12-17T11:21:03Z</time>
      </trkpt>
      <trkpt lat="44.98889" lon="5.84904">
        <ele>1852.6</ele>
        <time>2020-12-17T11:21:23Z</time>
      </trkpt>
      <trkpt lat="44.98887" lon="5.8491">
        <ele>1849.71</ele>
        <time>2020-12-17T11:21:35Z</time>
      </trkpt>
      <trkpt lat="44.98887" lon="5.84916">
        <ele>1847.79</ele>
        <time>2020-12-17T11:21:48Z</time>
      </trkpt>
      <trkpt lat="44.98886" lon="5.84924">
        <ele>1844.43</ele>
        <time>2020-12-17T11:22:00Z</time>
      </trkpt>
      <trkpt lat="44.98884" lon="5.84927">
        <ele>1842.02</ele>
        <time>2020-12-17T11:22:16Z</time>
      </trkpt>
      <trkpt lat="44.98887" lon="5.84935">
        <ele>1839.62</ele>
        <time>2020-12-17T11:22:29Z</time>
      </trkpt>
      <trkpt lat="44.98887" lon="5.84941">
        <ele>1836.74</ele>
        <time>2020-12-17T11:22:45Z</time>
      </trkpt>
      <trkpt lat="44.98882" lon="5.84941">
        <ele>1834.33</ele>
        <time>2020-12-17T11:23:03Z</time>
      </trkpt>
      <trkpt lat="44.98878" lon="5.8494">
        <ele>1833.85</ele>
        <time>2020-12-17T11:23:08Z</time>
      </trkpt>
      <trkpt lat="44.98877" lon="5.8494">
        <ele>1833.85</ele>
        <time>2020-12-17T11:23:09Z</time>
      </trkpt>
      <trkpt lat="44.98876" lon="5.8494">
        <ele>1833.37</ele>
        <time>2020-12-17T11:23:10Z</time>
      </trkpt>
      <trkpt lat="44.98875" lon="5.84941">
        <ele>1833.37</ele>
        <time>2020-12-17T11:23:11Z</time>
      </trkpt>
      <trkpt lat="44.98874" lon="5.84941">
        <ele>1833.37</ele>
        <time>2020-12-17T11:23:12Z</time>
      </trkpt>
      <trkpt lat="44.98866" lon="5.84942">
        <ele>1833.37</ele>
        <time>2020-12-17T11:23:28Z</time>
      </trkpt>
      <trkpt lat="44.98857" lon="5.84943">
        <ele>1832.41</ele>
        <time>2020-12-17T11:23:42Z</time>
      </trkpt>
      <trkpt lat="44.98851" lon="5.84939">
        <ele>1831.93</ele>
        <time>2020-12-17T11:23:56Z</time>
      </trkpt>
      <trkpt lat="44.9885" lon="5.84938">
        <ele>1832.41</ele>
        <time>2020-12-17T11:24:13Z</time>
      </trkpt>
      <trkpt lat="44.9885" lon="5.84937">
        <ele>1832.41</ele>
        <time>2020-12-17T11:24:46Z</time>
      </trkpt>
      <trkpt lat="44.98851" lon="5.84939">
        <ele>1832.41</ele>
        <time>2020-12-17T11:25:23Z</time>
      </trkpt>
      <trkpt lat="44.9885" lon="5.84939">
        <ele>1832.41</ele>
        <time>2020-12-17T11:26:13Z</time>
      </trkpt>
      <trkpt lat="44.98851" lon="5.84938">
        <ele>1832.41</ele>
        <time>2020-12-17T11:27:00Z</time>
      </trkpt>
      <trkpt lat="44.9885" lon="5.84939">
        <ele>1832.41</ele>
        <time>2020-12-17T11:27:26Z</time>
      </trkpt>
      <trkpt lat="44.9885" lon="5.84938">
        <ele>1832.41</ele>
        <time>2020-12-17T11:27:56Z</time>
      </trkpt>
      <trkpt lat="44.9885" lon="5.84938">
        <ele>1832.41</ele>
        <time>2020-12-17T11:28:43Z</time>
      </trkpt>
      <trkpt lat="44.9885" lon="5.84938">
        <ele>1832.41</ele>
        <time>2020-12-17T11:29:11Z</time>
      </trkpt>
      <trkpt lat="44.9885" lon="5.84939">
        <ele>1832.41</ele>
        <time>2020-12-17T11:29:46Z</time>
      </trkpt>
      <trkpt lat="44.9885" lon="5.84939">
        <ele>1832.41</ele>
        <time>2020-12-17T11:30:15Z</time>
      </trkpt>
      <trkpt lat="44.98849" lon="5.84939">
        <ele>1832.41</ele>
        <time>2020-12-17T11:30:55Z</time>
      </trkpt>
      <trkpt lat="44.98849" lon="5.84939">
        <ele>1832.41</ele>
        <time>2020-12-17T11:31:28Z</time>
      </trkpt>
      <trkpt lat="44.98849" lon="5.84939">
        <ele>1832.41</ele>
        <time>2020-12-17T11:31:58Z</time>
      </trkpt>
      <trkpt lat="44.98849" lon="5.84939">
        <ele>1832.41</ele>
        <time>2020-12-17T11:32:26Z</time>
      </trkpt>
      <trkpt lat="44.98849" lon="5.84939">
        <ele>1832.41</ele>
        <time>2020-12-17T11:33:10Z</time>
      </trkpt>
      <trkpt lat="44.9885" lon="5.8494">
        <ele>1832.41</ele>
        <time>2020-12-17T11:33:29Z</time>
      </trkpt>
      <trkpt lat="44.9885" lon="5.8494">
        <ele>1832.41</ele>
        <time>2020-12-17T11:34:10Z</time>
      </trkpt>
      <trkpt lat="44.98849" lon="5.8494">
        <ele>1832.41</ele>
        <time>2020-12-17T11:34:36Z</time>
      </trkpt>
      <trkpt lat="44.98847" lon="5.84938">
        <ele>1832.41</ele>
        <time>2020-12-17T11:35:01Z</time>
      </trkpt>
      <trkpt lat="44.98848" lon="5.84931">
        <ele>1832.41</ele>
        <time>2020-12-17T11:35:15Z</time>
      </trkpt>
      <trkpt lat="44.98849" lon="5.84932">
        <ele>1832.41</ele>
        <time>2020-12-17T11:35:33Z</time>
      </trkpt>
      <trkpt lat="44.98846" lon="5.84921">
        <ele>1832.41</ele>
        <time>2020-12-17T11:35:51Z</time>
      </trkpt>
      <trkpt lat="44.9884" lon="5.84912">
        <ele>1832.41</ele>
        <time>2020-12-17T11:36:08Z</time>
      </trkpt>
      <trkpt lat="44.98835" lon="5.84907">
        <ele>1832.41</ele>
        <time>2020-12-17T11:36:22Z</time>
      </trkpt>
      <trkpt lat="44.98831" lon="5.84904">
        <ele>1832.41</ele>
        <time>2020-12-17T11:36:37Z</time>
      </trkpt>
      <trkpt lat="44.98829" lon="5.84902">
        <ele>1814.63</ele>
        <time>2020-12-17T11:36:50Z</time>
      </trkpt>
      <trkpt lat="44.98828" lon="5.84902">
        <ele>1814.63</ele>
        <time>2020-12-17T11:36:51Z</time>
      </trkpt>
      <trkpt lat="44.9882" lon="5.84898">
        <ele>1811.74</ele>
        <time>2020-12-17T11:37:08Z</time>
      </trkpt>
      <trkpt lat="44.98814" lon="5.84897">
        <ele>1808.38</ele>
        <time>2020-12-17T11:37:18Z</time>
      </trkpt>
      <trkpt lat="44.98809" lon="5.84896">
        <ele>1805.01</ele>
        <time>2020-12-17T11:37:28Z</time>
      </trkpt>
      <trkpt lat="44.98804" lon="5.84892">
        <ele>1802.13</ele>
        <time>2020-12-17T11:37:37Z</time>
      </trkpt>
      <trkpt lat="44.988" lon="5.84891">
        <ele>1799.73</ele>
        <time>2020-12-17T11:37:43Z</time>
      </trkpt>
      <trkpt lat="44.98794" lon="5.84888">
        <ele>1796.36</ele>
        <time>2020-12-17T11:37:55Z</time>
      </trkpt>
      <trkpt lat="44.98793" lon="5.84889">
        <ele>1793.96</ele>
        <time>2020-12-17T11:38:22Z</time>
      </trkpt>
      <trkpt lat="44.9879" lon="5.84888">
        <ele>1793.96</ele>
        <time>2020-12-17T11:38:54Z</time>
      </trkpt>
      <trkpt lat="44.98788" lon="5.84887">
        <ele>1792.03</ele>
        <time>2020-12-17T11:39:15Z</time>
      </trkpt>
      <trkpt lat="44.98787" lon="5.84887">
        <ele>1792.03</ele>
        <time>2020-12-17T11:39:41Z</time>
      </trkpt>
      <trkpt lat="44.98783" lon="5.84885">
        <ele>1791.07</ele>
        <time>2020-12-17T11:40:00Z</time>
      </trkpt>
      <trkpt lat="44.98779" lon="5.84882">
        <ele>1789.63</ele>
        <time>2020-12-17T11:40:17Z</time>
      </trkpt>
      <trkpt lat="44.98772" lon="5.84878">
        <ele>1786.27</ele>
        <time>2020-12-17T11:40:30Z</time>
      </trkpt>
      <trkpt lat="44.98766" lon="5.84872">
        <ele>1783.38</ele>
        <time>2020-12-17T11:40:41Z</time>
      </trkpt>
      <trkpt lat="44.9876" lon="5.84865">
        <ele>1780.02</ele>
        <time>2020-12-17T11:40:54Z</time>
      </trkpt>
      <trkpt lat="44.98758" lon="5.84863">
        <ele>1779.06</ele>
        <time>2020-12-17T11:40:59Z</time>
      </trkpt>
      <trkpt lat="44.98756" lon="5.84863">
        <ele>1776.65</ele>
        <time>2020-12-17T11:41:16Z</time>
      </trkpt>
      <trkpt lat="44.98756" lon="5.84862">
        <ele>1776.17</ele>
        <time>2020-12-17T11:41:33Z</time>
      </trkpt>
      <trkpt lat="44.98753" lon="5.8486">
        <ele>1775.21</ele>
        <time>2020-12-17T11:41:49Z</time>
      </trkpt>
      <trkpt lat="44.98746" lon="5.84853">
        <ele>1773.29</ele>
        <time>2020-12-17T11:42:08Z</time>
      </trkpt>
      <trkpt lat="44.98739" lon="5.84847">
        <ele>1770.41</ele>
        <time>2020-12-17T11:42:22Z</time>
      </trkpt>
      <trkpt lat="44.98731" lon="5.84839">
        <ele>1767.52</ele>
        <time>2020-12-17T11:42:36Z</time>
      </trkpt>
      <trkpt lat="44.98726" lon="5.84831">
        <ele>1764.64</ele>
        <time>2020-12-17T11:42:50Z</time>
      </trkpt>
      <trkpt lat="44.98719" lon="5.84824">
        <ele>1762.23</ele>
        <time>2020-12-17T11:43:03Z</time>
      </trkpt>
      <trkpt lat="44.98713" lon="5.84819">
        <ele>1758.87</ele>
        <time>2020-12-17T11:43:14Z</time>
      </trkpt>
      <trkpt lat="44.98712" lon="5.84818">
        <ele>1758.39</ele>
        <time>2020-12-17T11:43:16Z</time>
      </trkpt>
      <trkpt lat="44.98702" lon="5.8481">
        <ele>1755.02</ele>
        <time>2020-12-17T11:43:31Z</time>
      </trkpt>
      <trkpt lat="44.98691" lon="5.84802">
        <ele>1752.14</ele>
        <time>2020-12-17T11:43:47Z</time>
      </trkpt>
      <trkpt lat="44.98681" lon="5.84794">
        <ele>1751.18</ele>
        <time>2020-12-17T11:44:04Z</time>
      </trkpt>
      <trkpt lat="44.98679" lon="5.84789">
        <ele>1750.7</ele>
        <time>2020-12-17T11:44:20Z</time>
      </trkpt>
      <trkpt lat="44.9868" lon="5.8479">
        <ele>1749.74</ele>
        <time>2020-12-17T11:44:44Z</time>
      </trkpt>
      <trkpt lat="44.98675" lon="5.84783">
        <ele>1750.22</ele>
        <time>2020-12-17T11:45:03Z</time>
      </trkpt>
      <trkpt lat="44.98666" lon="5.84774">
        <ele>1749.74</ele>
        <time>2020-12-17T11:45:18Z</time>
      </trkpt>
      <trkpt lat="44.98658" lon="5.84767">
        <ele>1748.29</ele>
        <time>2020-12-17T11:45:33Z</time>
      </trkpt>
      <trkpt lat="44.98655" lon="5.84763">
        <ele>1746.37</ele>
        <time>2020-12-17T11:45:48Z</time>
      </trkpt>
      <trkpt lat="44.98645" lon="5.84761">
        <ele>1743.97</ele>
        <time>2020-12-17T11:46:04Z</time>
      </trkpt>
      <trkpt lat="44.98634" lon="5.84756">
        <ele>1740.6</ele>
        <time>2020-12-17T11:46:17Z</time>
      </trkpt>
      <trkpt lat="44.98629" lon="5.84749">
        <ele>1738.68</ele>
        <time>2020-12-17T11:46:32Z</time>
      </trkpt>
      <trkpt lat="44.98629" lon="5.8475">
        <ele>1738.68</ele>
        <time>2020-12-17T11:46:54Z</time>
      </trkpt>
      <trkpt lat="44.98629" lon="5.84749">
        <ele>1738.68</ele>
        <time>2020-12-17T11:47:13Z</time>
      </trkpt>
      <trkpt lat="44.98625" lon="5.84747">
        <ele>1738.68</ele>
        <time>2020-12-17T11:47:31Z</time>
      </trkpt>
      <trkpt lat="44.98625" lon="5.84743">
        <ele>1738.2</ele>
        <time>2020-12-17T11:47:47Z</time>
      </trkpt>
      <trkpt lat="44.98626" lon="5.84743">
        <ele>1738.2</ele>
        <time>2020-12-17T11:48:10Z</time>
      </trkpt>
      <trkpt lat="44.98627" lon="5.84744">
        <ele>1738.2</ele>
        <time>2020-12-17T11:48:31Z</time>
      </trkpt>
      <trkpt lat="44.98627" lon="5.84745">
        <ele>1734.84</ele>
        <time>2020-12-17T11:48:45Z</time>
      </trkpt>
      <trkpt lat="44.98627" lon="5.84745">
        <ele>1734.84</ele>
        <time>2020-12-17T11:48:46Z</time>
      </trkpt>
      <trkpt lat="44.98627" lon="5.84745">
        <ele>1738.68</ele>
        <time>2020-12-17T11:48:55Z</time>
      </trkpt>
      <trkpt lat="44.98627" lon="5.84744">
        <ele>1736.76</ele>
        <time>2020-12-17T11:49:13Z</time>
      </trkpt>
      <trkpt lat="44.98627" lon="5.84745">
        <ele>1733.39</ele>
        <time>2020-12-17T11:49:28Z</time>
      </trkpt>
      <trkpt lat="44.98627" lon="5.84744">
        <ele>1737.72</ele>
        <time>2020-12-17T11:49:36Z</time>
      </trkpt>
      <trkpt lat="44.98626" lon="5.84746">
        <ele>1735.8</ele>
        <time>2020-12-17T11:50:02Z</time>
      </trkpt>
      <trkpt lat="44.98626" lon="5.84743">
        <ele>1730.99</ele>
        <time>2020-12-17T11:50:19Z</time>
      </trkpt>
      <trkpt lat="44.98626" lon="5.84743">
        <ele>1728.59</ele>
        <time>2020-12-17T11:50:21Z</time>
      </trkpt>
      <trkpt lat="44.98626" lon="5.84743">
        <ele>1734.84</ele>
        <time>2020-12-17T11:50:30Z</time>
      </trkpt>
      <trkpt lat="44.98626" lon="5.84743">
        <ele>1739.16</ele>
        <time>2020-12-17T11:50:32Z</time>
      </trkpt>
      <trkpt lat="44.98625" lon="5.84742">
        <ele>1735.8</ele>
        <time>2020-12-17T11:50:46Z</time>
      </trkpt>
      <trkpt lat="44.98625" lon="5.84742">
        <ele>1739.16</ele>
        <time>2020-12-17T11:50:51Z</time>
      </trkpt>
      <trkpt lat="44.98625" lon="5.84742">
        <ele>1743.01</ele>
        <time>2020-12-17T11:50:53Z</time>
      </trkpt>
      <trkpt lat="44.98625" lon="5.84742">
        <ele>1743.49</ele>
        <time>2020-12-17T11:50:55Z</time>
      </trkpt>
      <trkpt lat="44.98625" lon="5.84742">
        <ele>1740.12</ele>
        <time>2020-12-17T11:51:02Z</time>
      </trkpt>
      <trkpt lat="44.98624" lon="5.84742">
        <ele>1736.76</ele>
        <time>2020-12-17T11:51:19Z</time>
      </trkpt>
      <trkpt lat="44.98624" lon="5.84742">
        <ele>1733.39</ele>
        <time>2020-12-17T11:51:21Z</time>
      </trkpt>
      <trkpt lat="44.98624" lon="5.84742">
        <ele>1730.03</ele>
        <time>2020-12-17T11:51:23Z</time>
      </trkpt>
      <trkpt lat="44.98624" lon="5.84743">
        <ele>1725.22</ele>
        <time>2020-12-17T11:51:25Z</time>
      </trkpt>
      <trkpt lat="44.98624" lon="5.84743">
        <ele>1718.97</ele>
        <time>2020-12-17T11:51:27Z</time>
      </trkpt>
      <trkpt lat="44.98624" lon="5.84742">
        <ele>1718.01</ele>
        <time>2020-12-17T11:51:29Z</time>
      </trkpt>
      <trkpt lat="44.98624" lon="5.84742">
        <ele>1724.74</ele>
        <time>2020-12-17T11:51:30Z</time>
      </trkpt>
      <trkpt lat="44.98624" lon="5.84742">
        <ele>1731.47</ele>
        <time>2020-12-17T11:51:31Z</time>
      </trkpt>
      <trkpt lat="44.98624" lon="5.84742">
        <ele>1735.32</ele>
        <time>2020-12-17T11:51:32Z</time>
      </trkpt>
      <trkpt lat="44.98624" lon="5.84742">
        <ele>1739.16</ele>
        <time>2020-12-17T11:51:33Z</time>
      </trkpt>
      <trkpt lat="44.98625" lon="5.84742">
        <ele>1743.01</ele>
        <time>2020-12-17T11:51:34Z</time>
      </trkpt>
      <trkpt lat="44.98625" lon="5.84742">
        <ele>1747.81</ele>
        <time>2020-12-17T11:51:36Z</time>
      </trkpt>
      <trkpt lat="44.98625" lon="5.84742">
        <ele>1748.78</ele>
        <time>2020-12-17T11:51:38Z</time>
      </trkpt>
      <trkpt lat="44.98625" lon="5.84741">
        <ele>1744.93</ele>
        <time>2020-12-17T11:51:41Z</time>
      </trkpt>
      <trkpt lat="44.98625" lon="5.8474">
        <ele>1741.57</ele>
        <time>2020-12-17T11:51:48Z</time>
      </trkpt>
      <trkpt lat="44.98626" lon="5.84741">
        <ele>1738.68</ele>
        <time>2020-12-17T11:51:53Z</time>
      </trkpt>
      <trkpt lat="44.98626" lon="5.84742">
        <ele>1737.24</ele>
        <time>2020-12-17T11:51:56Z</time>
      </trkpt>
      <trkpt lat="44.98624" lon="5.84743">
        <ele>1736.76</ele>
        <time>2020-12-17T11:52:27Z</time>
      </trkpt>
      <trkpt lat="44.98623" lon="5.84743">
        <ele>1735.32</ele>
        <time>2020-12-17T11:52:34Z</time>
      </trkpt>
      <trkpt lat="44.98624" lon="5.84743">
        <ele>1738.68</ele>
        <time>2020-12-17T11:52:39Z</time>
      </trkpt>
      <trkpt lat="44.98624" lon="5.84743">
        <ele>1738.68</ele>
        <time>2020-12-17T11:52:40Z</time>
      </trkpt>
      <trkpt lat="44.98625" lon="5.84744">
        <ele>1737.72</ele>
        <time>2020-12-17T11:53:12Z</time>
      </trkpt>
      <trkpt lat="44.98626" lon="5.84744">
        <ele>1738.2</ele>
        <time>2020-12-17T11:53:51Z</time>
      </trkpt>
      <trkpt lat="44.98626" lon="5.84743">
        <ele>1738.2</ele>
        <time>2020-12-17T11:54:19Z</time>
      </trkpt>
      <trkpt lat="44.98624" lon="5.84742">
        <ele>1738.2</ele>
        <time>2020-12-17T11:54:43Z</time>
      </trkpt>
      <trkpt lat="44.98624" lon="5.84741">
        <ele>1738.2</ele>
        <time>2020-12-17T11:55:18Z</time>
      </trkpt>
      <trkpt lat="44.98625" lon="5.84742">
        <ele>1738.2</ele>
        <time>2020-12-17T11:56:05Z</time>
      </trkpt>
      <trkpt lat="44.98627" lon="5.84743">
        <ele>1738.2</ele>
        <time>2020-12-17T11:56:37Z</time>
      </trkpt>
      <trkpt lat="44.98626" lon="5.84744">
        <ele>1738.2</ele>
        <time>2020-12-17T11:57:19Z</time>
      </trkpt>
      <trkpt lat="44.98625" lon="5.84743">
        <ele>1738.2</ele>
        <time>2020-12-17T11:57:46Z</time>
      </trkpt>
      <trkpt lat="44.98623" lon="5.84741">
        <ele>1738.2</ele>
        <time>2020-12-17T11:58:14Z</time>
      </trkpt>
      <trkpt lat="44.98624" lon="5.84741">
        <ele>1738.2</ele>
        <time>2020-12-17T11:58:35Z</time>
      </trkpt>
      <trkpt lat="44.98625" lon="5.84742">
        <ele>1738.2</ele>
        <time>2020-12-17T11:59:03Z</time>
      </trkpt>
      <trkpt lat="44.98625" lon="5.84741">
        <ele>1738.2</ele>
        <time>2020-12-17T11:59:42Z</time>
      </trkpt>
      <trkpt lat="44.98624" lon="5.84742">
        <ele>1738.2</ele>
        <time>2020-12-17T12:00:10Z</time>
      </trkpt>
      <trkpt lat="44.98624" lon="5.84742">
        <ele>1738.2</ele>
        <time>2020-12-17T12:00:36Z</time>
      </trkpt>
      <trkpt lat="44.98625" lon="5.84743">
        <ele>1738.2</ele>
        <time>2020-12-17T12:01:04Z</time>
      </trkpt>
      <trkpt lat="44.98624" lon="5.84744">
        <ele>1738.2</ele>
        <time>2020-12-17T12:01:44Z</time>
      </trkpt>
      <trkpt lat="44.98624" lon="5.84742">
        <ele>1738.2</ele>
        <time>2020-12-17T12:02:19Z</time>
      </trkpt>
      <trkpt lat="44.98625" lon="5.84743">
        <ele>1738.2</ele>
        <time>2020-12-17T12:03:05Z</time>
      </trkpt>
      <trkpt lat="44.98626" lon="5.84741">
        <ele>1738.2</ele>
        <time>2020-12-17T12:03:37Z</time>
      </trkpt>
      <trkpt lat="44.98626" lon="5.8474">
        <ele>1738.2</ele>
        <time>2020-12-17T12:04:09Z</time>
      </trkpt>
      <trkpt lat="44.98626" lon="5.8474">
        <ele>1738.2</ele>
        <time>2020-12-17T12:04:37Z</time>
      </trkpt>
      <trkpt lat="44.98625" lon="5.8474">
        <ele>1738.2</ele>
        <time>2020-12-17T12:05:12Z</time>
      </trkpt>
      <trkpt lat="44.98625" lon="5.8474">
        <ele>1738.2</ele>
        <time>2020-12-17T12:05:52Z</time>
      </trkpt>
      <trkpt lat="44.98625" lon="5.8474">
        <ele>1738.2</ele>
        <time>2020-12-17T12:06:31Z</time>
      </trkpt>
      <trkpt lat="44.98626" lon="5.84739">
        <ele>1738.2</ele>
        <time>2020-12-17T12:07:08Z</time>
      </trkpt>
      <trkpt lat="44.98625" lon="5.84739">
        <ele>1738.2</ele>
        <time>2020-12-17T12:07:19Z</time>
      </trkpt>
      <trkpt lat="44.98624" lon="5.8474">
        <ele>1738.2</ele>
        <time>2020-12-17T12:07:44Z</time>
      </trkpt>
      <trkpt lat="44.98624" lon="5.84742">
        <ele>1723.78</ele>
        <time>2020-12-17T12:08:04Z</time>
      </trkpt>
      <trkpt lat="44.98624" lon="5.84742">
        <ele>1731.95</ele>
        <time>2020-12-17T12:08:05Z</time>
      </trkpt>
      <trkpt lat="44.98624" lon="5.84742">
        <ele>1737.24</ele>
        <time>2020-12-17T12:08:06Z</time>
      </trkpt>
      <trkpt lat="44.98624" lon="5.84742">
        <ele>1741.08</ele>
        <time>2020-12-17T12:08:08Z</time>
      </trkpt>
      <trkpt lat="44.98624" lon="5.84742">
        <ele>1741.57</ele>
        <time>2020-12-17T12:08:10Z</time>
      </trkpt>
      <trkpt lat="44.98625" lon="5.84742">
        <ele>1739.16</ele>
        <time>2020-12-17T12:08:41Z</time>
      </trkpt>
      <trkpt lat="44.98627" lon="5.84744">
        <ele>1737.72</ele>
        <time>2020-12-17T12:08:53Z</time>
      </trkpt>
      <trkpt lat="44.98626" lon="5.84743">
        <ele>1740.6</ele>
        <time>2020-12-17T12:08:59Z</time>
      </trkpt>
      <trkpt lat="44.98626" lon="5.84743">
        <ele>1741.08</ele>
        <time>2020-12-17T12:09:00Z</time>
      </trkpt>
      <trkpt lat="44.98626" lon="5.84741">
        <ele>1739.16</ele>
        <time>2020-12-17T12:09:23Z</time>
      </trkpt>
      <trkpt lat="44.98627" lon="5.84743">
        <ele>1734.84</ele>
        <time>2020-12-17T12:10:01Z</time>
      </trkpt>
      <trkpt lat="44.98627" lon="5.84743">
        <ele>1739.16</ele>
        <time>2020-12-17T12:10:05Z</time>
      </trkpt>
      <trkpt lat="44.98627" lon="5.84743">
        <ele>1742.53</ele>
        <time>2020-12-17T12:10:07Z</time>
      </trkpt>
      <trkpt lat="44.98627" lon="5.84743">
        <ele>1741.08</ele>
        <time>2020-12-17T12:10:14Z</time>
      </trkpt>
      <trkpt lat="44.98627" lon="5.84743">
        <ele>1739.16</ele>
        <time>2020-12-17T12:10:49Z</time>
      </trkpt>
      <trkpt lat="44.98627" lon="5.84743">
        <ele>1741.08</ele>
        <time>2020-12-17T12:10:57Z</time>
      </trkpt>
      <trkpt lat="44.98627" lon="5.84742">
        <ele>1738.68</ele>
        <time>2020-12-17T12:11:15Z</time>
      </trkpt>
      <trkpt lat="44.98627" lon="5.84742">
        <ele>1740.12</ele>
        <time>2020-12-17T12:11:21Z</time>
      </trkpt>
      <trkpt lat="44.98627" lon="5.84743">
        <ele>1739.16</ele>
        <time>2020-12-17T12:11:59Z</time>
      </trkpt>
      <trkpt lat="44.98626" lon="5.84742">
        <ele>1740.12</ele>
        <time>2020-12-17T12:12:20Z</time>
      </trkpt>
      <trkpt lat="44.98626" lon="5.84741">
        <ele>1739.16</ele>
        <time>2020-12-17T12:12:52Z</time>
      </trkpt>
      <trkpt lat="44.98624" lon="5.84741">
        <ele>1735.8</ele>
        <time>2020-12-17T12:13:19Z</time>
      </trkpt>
      <trkpt lat="44.98624" lon="5.84741">
        <ele>1739.64</ele>
        <time>2020-12-17T12:13:22Z</time>
      </trkpt>
      <trkpt lat="44.98625" lon="5.8474">
        <ele>1739.16</ele>
        <time>2020-12-17T12:13:52Z</time>
      </trkpt>
      <trkpt lat="44.98624" lon="5.8474">
        <ele>1740.6</ele>
        <time>2020-12-17T12:14:15Z</time>
      </trkpt>
      <trkpt lat="44.98626" lon="5.84741">
        <ele>1738.2</ele>
        <time>2020-12-17T12:14:44Z</time>
      </trkpt>
      <trkpt lat="44.98625" lon="5.84741">
        <ele>1741.08</ele>
        <time>2020-12-17T12:14:53Z</time>
      </trkpt>
      <trkpt lat="44.98624" lon="5.8474">
        <ele>1738.68</ele>
        <time>2020-12-17T12:15:01Z</time>
      </trkpt>
      <trkpt lat="44.98625" lon="5.84742">
        <ele>1739.64</ele>
        <time>2020-12-17T12:15:27Z</time>
      </trkpt>
      <trkpt lat="44.98625" lon="5.84743">
        <ele>1741.08</ele>
        <time>2020-12-17T12:15:53Z</time>
      </trkpt>
      <trkpt lat="44.98626" lon="5.84742">
        <ele>1739.64</ele>
        <time>2020-12-17T12:16:19Z</time>
      </trkpt>
      <trkpt lat="44.98625" lon="5.84742">
        <ele>1741.08</ele>
        <time>2020-12-17T12:16:51Z</time>
      </trkpt>
      <trkpt lat="44.98625" lon="5.84742">
        <ele>1740.12</ele>
        <time>2020-12-17T12:17:23Z</time>
      </trkpt>
      <trkpt lat="44.98626" lon="5.84742">
        <ele>1739.64</ele>
        <time>2020-12-17T12:17:57Z</time>
      </trkpt>
      <trkpt lat="44.98625" lon="5.84746">
        <ele>1740.6</ele>
        <time>2020-12-17T12:18:23Z</time>
      </trkpt>
      <trkpt lat="44.98625" lon="5.84745">
        <ele>1739.64</ele>
        <time>2020-12-17T12:18:50Z</time>
      </trkpt>
      <trkpt lat="44.98623" lon="5.84739">
        <ele>1740.12</ele>
        <time>2020-12-17T12:19:25Z</time>
      </trkpt>
      <trkpt lat="44.98625" lon="5.8474">
        <ele>1740.12</ele>
        <time>2020-12-17T12:20:01Z</time>
      </trkpt>
      <trkpt lat="44.98623" lon="5.84738">
        <ele>1740.12</ele>
        <time>2020-12-17T12:20:30Z</time>
      </trkpt>
      <trkpt lat="44.98623" lon="5.84737">
        <ele>1740.12</ele>
        <time>2020-12-17T12:21:06Z</time>
      </trkpt>
      <trkpt lat="44.98623" lon="5.84739">
        <ele>1740.12</ele>
        <time>2020-12-17T12:21:22Z</time>
      </trkpt>
      <trkpt lat="44.98624" lon="5.84741">
        <ele>1740.12</ele>
        <time>2020-12-17T12:21:38Z</time>
      </trkpt>
      <trkpt lat="44.98624" lon="5.84742">
        <ele>1740.12</ele>
        <time>2020-12-17T12:21:58Z</time>
      </trkpt>
      <trkpt lat="44.98625" lon="5.84741">
        <ele>1740.12</ele>
        <time>2020-12-17T12:22:25Z</time>
      </trkpt>
      <trkpt lat="44.98627" lon="5.84743">
        <ele>1740.12</ele>
        <time>2020-12-17T12:22:47Z</time>
      </trkpt>
      <trkpt lat="44.98627" lon="5.84743">
        <ele>1740.12</ele>
        <time>2020-12-17T12:23:20Z</time>
      </trkpt>
      <trkpt lat="44.98627" lon="5.84743">
        <ele>1740.12</ele>
        <time>2020-12-17T12:23:49Z</time>
      </trkpt>
      <trkpt lat="44.98628" lon="5.84746">
        <ele>1740.12</ele>
        <time>2020-12-17T12:24:03Z</time>
      </trkpt>
      <trkpt lat="44.98632" lon="5.84749">
        <ele>1741.57</ele>
        <time>2020-12-17T12:24:20Z</time>
      </trkpt>
      <trkpt lat="44.98628" lon="5.84745">
        <ele>1740.6</ele>
        <time>2020-12-17T12:24:57Z</time>
      </trkpt>
      <trkpt lat="44.98627" lon="5.84744">
        <ele>1741.57</ele>
        <time>2020-12-17T12:25:24Z</time>
      </trkpt>
      <trkpt lat="44.98627" lon="5.84743">
        <ele>1741.57</ele>
        <time>2020-12-17T12:25:45Z</time>
      </trkpt>
      <trkpt lat="44.98626" lon="5.84743">
        <ele>1741.57</ele>
        <time>2020-12-17T12:26:08Z</time>
      </trkpt>
      <trkpt lat="44.98625" lon="5.84742">
        <ele>1741.57</ele>
        <time>2020-12-17T12:26:32Z</time>
      </trkpt>
      <trkpt lat="44.98625" lon="5.84741">
        <ele>1741.57</ele>
        <time>2020-12-17T12:27:23Z</time>
      </trkpt>
      <trkpt lat="44.98624" lon="5.84741">
        <ele>1741.57</ele>
        <time>2020-12-17T12:27:43Z</time>
      </trkpt>
      <trkpt lat="44.98625" lon="5.84742">
        <ele>1741.57</ele>
        <time>2020-12-17T12:27:59Z</time>
      </trkpt>
      <trkpt lat="44.98624" lon="5.84743">
        <ele>1741.57</ele>
        <time>2020-12-17T12:28:19Z</time>
      </trkpt>
      <trkpt lat="44.98624" lon="5.84744">
        <ele>1741.57</ele>
        <time>2020-12-17T12:28:39Z</time>
      </trkpt>
      <trkpt lat="44.98624" lon="5.84743">
        <ele>1741.57</ele>
        <time>2020-12-17T12:29:00Z</time>
      </trkpt>
      <trkpt lat="44.98622" lon="5.84738">
        <ele>1741.57</ele>
        <time>2020-12-17T12:29:17Z</time>
      </trkpt>
      <trkpt lat="44.98617" lon="5.84719">
        <ele>1743.97</ele>
        <time>2020-12-17T12:29:30Z</time>
      </trkpt>
      <trkpt lat="44.98617" lon="5.84713">
        <ele>1743.97</ele>
        <time>2020-12-17T12:29:34Z</time>
      </trkpt>
      <trkpt lat="44.98611" lon="5.84695">
        <ele>1743.49</ele>
        <time>2020-12-17T12:29:50Z</time>
      </trkpt>
      <trkpt lat="44.98607" lon="5.84682">
        <ele>1741.57</ele>
        <time>2020-12-17T12:30:06Z</time>
      </trkpt>
      <trkpt lat="44.98606" lon="5.84681">
        <ele>1741.57</ele>
        <time>2020-12-17T12:30:09Z</time>
      </trkpt>
      <trkpt lat="44.98604" lon="5.84677">
        <ele>1741.57</ele>
        <time>2020-12-17T12:30:12Z</time>
      </trkpt>
      <trkpt lat="44.98599" lon="5.84662">
        <ele>1739.64</ele>
        <time>2020-12-17T12:30:24Z</time>
      </trkpt>
      <trkpt lat="44.98595" lon="5.84645">
        <ele>1737.24</ele>
        <time>2020-12-17T12:30:39Z</time>
      </trkpt>
      <trkpt lat="44.98594" lon="5.84631">
        <ele>1735.8</ele>
        <time>2020-12-17T12:30:52Z</time>
      </trkpt>
      <trkpt lat="44.98592" lon="5.84626">
        <ele>1735.32</ele>
        <time>2020-12-17T12:30:57Z</time>
      </trkpt>
      <trkpt lat="44.98588" lon="5.84621">
        <ele>1733.39</ele>
        <time>2020-12-17T12:31:09Z</time>
      </trkpt>
      <trkpt lat="44.98587" lon="5.84619">
        <ele>1732.91</ele>
        <time>2020-12-17T12:31:11Z</time>
      </trkpt>
      <trkpt lat="44.98575" lon="5.84608">
        <ele>1730.03</ele>
        <time>2020-12-17T12:31:25Z</time>
      </trkpt>
      <trkpt lat="44.98562" lon="5.84597">
        <ele>1726.67</ele>
        <time>2020-12-17T12:31:40Z</time>
      </trkpt>
      <trkpt lat="44.98549" lon="5.84588">
        <ele>1723.78</ele>
        <time>2020-12-17T12:31:57Z</time>
      </trkpt>
      <trkpt lat="44.98546" lon="5.84584">
        <ele>1722.82</ele>
        <time>2020-12-17T12:32:06Z</time>
      </trkpt>
      <trkpt lat="44.98539" lon="5.8458">
        <ele>1721.86</ele>
        <time>2020-12-17T12:32:14Z</time>
      </trkpt>
      <trkpt lat="44.98528" lon="5.84572">
        <ele>1720.42</ele>
        <time>2020-12-17T12:32:27Z</time>
      </trkpt>
      <trkpt lat="44.98515" lon="5.84564">
        <ele>1718.01</ele>
        <time>2020-12-17T12:32:43Z</time>
      </trkpt>
      <trkpt lat="44.98509" lon="5.84563">
        <ele>1717.53</ele>
        <time>2020-12-17T12:32:57Z</time>
      </trkpt>
      <trkpt lat="44.98508" lon="5.84563">
        <ele>1717.53</ele>
        <time>2020-12-17T12:32:59Z</time>
      </trkpt>
      <trkpt lat="44.98498" lon="5.84561">
        <ele>1716.57</ele>
        <time>2020-12-17T12:33:12Z</time>
      </trkpt>
      <trkpt lat="44.98494" lon="5.84552">
        <ele>1716.57</ele>
        <time>2020-12-17T12:33:24Z</time>
      </trkpt>
      <trkpt lat="44.9849" lon="5.84547">
        <ele>1714.65</ele>
        <time>2020-12-17T12:33:38Z</time>
      </trkpt>
      <trkpt lat="44.98487" lon="5.84543">
        <ele>1714.17</ele>
        <time>2020-12-17T12:33:44Z</time>
      </trkpt>
      <trkpt lat="44.98486" lon="5.84542">
        <ele>1714.17</ele>
        <time>2020-12-17T12:33:45Z</time>
      </trkpt>
      <trkpt lat="44.98486" lon="5.84541">
        <ele>1714.17</ele>
        <time>2020-12-17T12:33:46Z</time>
      </trkpt>
      <trkpt lat="44.98485" lon="5.8454">
        <ele>1714.17</ele>
        <time>2020-12-17T12:33:47Z</time>
      </trkpt>
      <trkpt lat="44.98484" lon="5.84539">
        <ele>1714.17</ele>
        <time>2020-12-17T12:33:48Z</time>
      </trkpt>
      <trkpt lat="44.98483" lon="5.84539">
        <ele>1714.17</ele>
        <time>2020-12-17T12:33:49Z</time>
      </trkpt>
      <trkpt lat="44.98471" lon="5.84537">
        <ele>1713.21</ele>
        <time>2020-12-17T12:34:04Z</time>
      </trkpt>
      <trkpt lat="44.98458" lon="5.84532">
        <ele>1713.21</ele>
        <time>2020-12-17T12:34:21Z</time>
      </trkpt>
      <trkpt lat="44.98445" lon="5.84531">
        <ele>1714.17</ele>
        <time>2020-12-17T12:34:38Z</time>
      </trkpt>
      <trkpt lat="44.98432" lon="5.84527">
        <ele>1714.17</ele>
        <time>2020-12-17T12:34:54Z</time>
      </trkpt>
      <trkpt lat="44.98423" lon="5.84521">
        <ele>1715.13</ele>
        <time>2020-12-17T12:35:07Z</time>
      </trkpt>
      <trkpt lat="44.98414" lon="5.84519">
        <ele>1716.57</ele>
        <time>2020-12-17T12:35:22Z</time>
      </trkpt>
      <trkpt lat="44.98407" lon="5.84512">
        <ele>1716.57</ele>
        <time>2020-12-17T12:35:35Z</time>
      </trkpt>
      <trkpt lat="44.98396" lon="5.84506">
        <ele>1718.01</ele>
        <time>2020-12-17T12:35:50Z</time>
      </trkpt>
      <trkpt lat="44.98387" lon="5.84503">
        <ele>1718.01</ele>
        <time>2020-12-17T12:36:04Z</time>
      </trkpt>
      <trkpt lat="44.98382" lon="5.84503">
        <ele>1718.49</ele>
        <time>2020-12-17T12:36:12Z</time>
      </trkpt>
      <trkpt lat="44.98375" lon="5.84502">
        <ele>1718.01</ele>
        <time>2020-12-17T12:36:24Z</time>
      </trkpt>
      <trkpt lat="44.98363" lon="5.84503">
        <ele>1717.53</ele>
        <time>2020-12-17T12:36:39Z</time>
      </trkpt>
      <trkpt lat="44.98347" lon="5.84503">
        <ele>1716.57</ele>
        <time>2020-12-17T12:36:57Z</time>
      </trkpt>
      <trkpt lat="44.98332" lon="5.84506">
        <ele>1716.57</ele>
        <time>2020-12-17T12:37:14Z</time>
      </trkpt>
      <trkpt lat="44.9832" lon="5.84508">
        <ele>1717.05</ele>
        <time>2020-12-17T12:37:30Z</time>
      </trkpt>
      <trkpt lat="44.9831" lon="5.84514">
        <ele>1718.01</ele>
        <time>2020-12-17T12:37:46Z</time>
      </trkpt>
      <trkpt lat="44.983" lon="5.8452">
        <ele>1718.97</ele>
        <time>2020-12-17T12:38:02Z</time>
      </trkpt>
      <trkpt lat="44.98292" lon="5.84524">
        <ele>1720.9</ele>
        <time>2020-12-17T12:38:17Z</time>
      </trkpt>
      <trkpt lat="44.98279" lon="5.84523">
        <ele>1722.34</ele>
        <time>2020-12-17T12:38:34Z</time>
      </trkpt>
      <trkpt lat="44.98266" lon="5.84516">
        <ele>1723.3</ele>
        <time>2020-12-17T12:38:51Z</time>
      </trkpt>
      <trkpt lat="44.98256" lon="5.84508">
        <ele>1723.78</ele>
        <time>2020-12-17T12:39:06Z</time>
      </trkpt>
      <trkpt lat="44.98249" lon="5.84502">
        <ele>1724.26</ele>
        <time>2020-12-17T12:39:17Z</time>
      </trkpt>
      <trkpt lat="44.98248" lon="5.84501">
        <ele>1724.26</ele>
        <time>2020-12-17T12:39:18Z</time>
      </trkpt>
      <trkpt lat="44.98244" lon="5.845">
        <ele>1724.26</ele>
        <time>2020-12-17T12:39:22Z</time>
      </trkpt>
      <trkpt lat="44.98227" lon="5.84493">
        <ele>1723.78</ele>
        <time>2020-12-17T12:39:40Z</time>
      </trkpt>
      <trkpt lat="44.98215" lon="5.84488">
        <ele>1723.78</ele>
        <time>2020-12-17T12:39:57Z</time>
      </trkpt>
      <trkpt lat="44.98207" lon="5.84483">
        <ele>1726.67</ele>
        <time>2020-12-17T12:40:13Z</time>
      </trkpt>
      <trkpt lat="44.98204" lon="5.84478">
        <ele>1728.11</ele>
        <time>2020-12-17T12:40:27Z</time>
      </trkpt>
      <trkpt lat="44.98204" lon="5.8448">
        <ele>1728.59</ele>
        <time>2020-12-17T12:40:46Z</time>
      </trkpt>
      <trkpt lat="44.98204" lon="5.8448">
        <ele>1728.59</ele>
        <time>2020-12-17T12:41:17Z</time>
      </trkpt>
      <trkpt lat="44.98203" lon="5.84479">
        <ele>1728.59</ele>
        <time>2020-12-17T12:41:37Z</time>
      </trkpt>
      <trkpt lat="44.98204" lon="5.84479">
        <ele>1728.59</ele>
        <time>2020-12-17T12:42:19Z</time>
      </trkpt>
      <trkpt lat="44.98204" lon="5.8448">
        <ele>1728.59</ele>
        <time>2020-12-17T12:42:59Z</time>
      </trkpt>
      <trkpt lat="44.98204" lon="5.84479">
        <ele>1728.59</ele>
        <time>2020-12-17T12:43:42Z</time>
      </trkpt>
      <trkpt lat="44.98205" lon="5.84479">
        <ele>1728.59</ele>
        <time>2020-12-17T12:44:37Z</time>
      </trkpt>
      <trkpt lat="44.98205" lon="5.84479">
        <ele>1728.59</ele>
        <time>2020-12-17T12:45:23Z</time>
      </trkpt>
      <trkpt lat="44.98205" lon="5.84479">
        <ele>1728.59</ele>
        <time>2020-12-17T12:45:46Z</time>
      </trkpt>
      <trkpt lat="44.98206" lon="5.84475">
        <ele>1728.59</ele>
        <time>2020-12-17T12:46:11Z</time>
      </trkpt>
      <trkpt lat="44.98205" lon="5.84474">
        <ele>1728.59</ele>
        <time>2020-12-17T12:46:25Z</time>
      </trkpt>
      <trkpt lat="44.98206" lon="5.84474">
        <ele>1728.59</ele>
        <time>2020-12-17T12:46:56Z</time>
      </trkpt>
      <trkpt lat="44.98206" lon="5.84473">
        <ele>1728.59</ele>
        <time>2020-12-17T12:47:54Z</time>
      </trkpt>
      <trkpt lat="44.98205" lon="5.84474">
        <ele>1728.59</ele>
        <time>2020-12-17T12:49:14Z</time>
      </trkpt>
      <trkpt lat="44.98206" lon="5.84473">
        <ele>1728.59</ele>
        <time>2020-12-17T12:50:06Z</time>
      </trkpt>
      <trkpt lat="44.98205" lon="5.84475">
        <ele>1728.59</ele>
        <time>2020-12-17T12:50:37Z</time>
      </trkpt>
      <trkpt lat="44.98205" lon="5.84476">
        <ele>1728.59</ele>
        <time>2020-12-17T12:51:29Z</time>
      </trkpt>
      <trkpt lat="44.98205" lon="5.84476">
        <ele>1728.59</ele>
        <time>2020-12-17T12:52:08Z</time>
      </trkpt>
      <trkpt lat="44.98205" lon="5.84475">
        <ele>1728.59</ele>
        <time>2020-12-17T12:52:41Z</time>
      </trkpt>
      <trkpt lat="44.98205" lon="5.84475">
        <ele>1728.59</ele>
        <time>2020-12-17T12:53:19Z</time>
      </trkpt>
      <trkpt lat="44.98205" lon="5.84475">
        <ele>1728.59</ele>
        <time>2020-12-17T12:53:47Z</time>
      </trkpt>
      <trkpt lat="44.98205" lon="5.84475">
        <ele>1728.59</ele>
        <time>2020-12-17T12:54:22Z</time>
      </trkpt>
      <trkpt lat="44.98203" lon="5.84473">
        <ele>1728.59</ele>
        <time>2020-12-17T12:55:00Z</time>
      </trkpt>
      <trkpt lat="44.98199" lon="5.84464">
        <ele>1728.59</ele>
        <time>2020-12-17T12:55:14Z</time>
      </trkpt>
      <trkpt lat="44.98196" lon="5.84456">
        <ele>1728.59</ele>
        <time>2020-12-17T12:55:30Z</time>
      </trkpt>
      <trkpt lat="44.98196" lon="5.84452">
        <ele>1725.22</ele>
        <time>2020-12-17T12:55:35Z</time>
      </trkpt>
      <trkpt lat="44.98196" lon="5.84452">
        <ele>1725.22</ele>
        <time>2020-12-17T12:55:36Z</time>
      </trkpt>
      <trkpt lat="44.98194" lon="5.84452">
        <ele>1723.78</ele>
        <time>2020-12-17T12:56:09Z</time>
      </trkpt>
      <trkpt lat="44.98195" lon="5.84443">
        <ele>1723.3</ele>
        <time>2020-12-17T12:56:35Z</time>
      </trkpt>
      <trkpt lat="44.98194" lon="5.84439">
        <ele>1722.34</ele>
        <time>2020-12-17T12:57:01Z</time>
      </trkpt>
      <trkpt lat="44.98196" lon="5.8443">
        <ele>1721.38</ele>
        <time>2020-12-17T12:57:15Z</time>
      </trkpt>
      <trkpt lat="44.98192" lon="5.84419">
        <ele>1718.97</ele>
        <time>2020-12-17T12:57:30Z</time>
      </trkpt>
      <trkpt lat="44.98191" lon="5.84408">
        <ele>1715.61</ele>
        <time>2020-12-17T12:57:41Z</time>
      </trkpt>
      <trkpt lat="44.98188" lon="5.84399">
        <ele>1712.73</ele>
        <time>2020-12-17T12:57:52Z</time>
      </trkpt>
      <trkpt lat="44.98183" lon="5.84392">
        <ele>1709.84</ele>
        <time>2020-12-17T12:58:05Z</time>
      </trkpt>
      <trkpt lat="44.98178" lon="5.84387">
        <ele>1706.96</ele>
        <time>2020-12-17T12:58:18Z</time>
      </trkpt>
      <trkpt lat="44.98172" lon="5.8438">
        <ele>1704.55</ele>
        <time>2020-12-17T12:58:35Z</time>
      </trkpt>
      <trkpt lat="44.98162" lon="5.84374">
        <ele>1701.19</ele>
        <time>2020-12-17T12:58:50Z</time>
      </trkpt>
      <trkpt lat="44.98161" lon="5.84373">
        <ele>1700.23</ele>
        <time>2020-12-17T12:58:52Z</time>
      </trkpt>
      <trkpt lat="44.98156" lon="5.84363">
        <ele>1697.34</ele>
        <time>2020-12-17T12:59:05Z</time>
      </trkpt>
      <trkpt lat="44.98156" lon="5.84361">
        <ele>1694.94</ele>
        <time>2020-12-17T12:59:27Z</time>
      </trkpt>
      <trkpt lat="44.98153" lon="5.84358">
        <ele>1694.94</ele>
        <time>2020-12-17T12:59:45Z</time>
      </trkpt>
      <trkpt lat="44.98146" lon="5.84348">
        <ele>1692.06</ele>
        <time>2020-12-17T13:00:00Z</time>
      </trkpt>
      <trkpt lat="44.98142" lon="5.84338">
        <ele>1688.69</ele>
        <time>2020-12-17T13:00:11Z</time>
      </trkpt>
      <trkpt lat="44.98141" lon="5.84338">
        <ele>1688.69</ele>
        <time>2020-12-17T13:00:12Z</time>
      </trkpt>
      <trkpt lat="44.98135" lon="5.84334">
        <ele>1685.33</ele>
        <time>2020-12-17T13:00:21Z</time>
      </trkpt>
      <trkpt lat="44.98127" lon="5.84331">
        <ele>1681.96</ele>
        <time>2020-12-17T13:00:32Z</time>
      </trkpt>
      <trkpt lat="44.98119" lon="5.84324">
        <ele>1679.08</ele>
        <time>2020-12-17T13:00:42Z</time>
      </trkpt>
      <trkpt lat="44.9811" lon="5.84318">
        <ele>1676.2</ele>
        <time>2020-12-17T13:00:53Z</time>
      </trkpt>
      <trkpt lat="44.981" lon="5.84312">
        <ele>1672.83</ele>
        <time>2020-12-17T13:01:05Z</time>
      </trkpt>
      <trkpt lat="44.98088" lon="5.84304">
        <ele>1669.95</ele>
        <time>2020-12-17T13:01:21Z</time>
      </trkpt>
      <trkpt lat="44.98078" lon="5.84299">
        <ele>1668.51</ele>
        <time>2020-12-17T13:01:34Z</time>
      </trkpt>
      <trkpt lat="44.98065" lon="5.84293">
        <ele>1666.58</ele>
        <time>2020-12-17T13:01:49Z</time>
      </trkpt>
      <trkpt lat="44.9806" lon="5.84282">
        <ele>1663.22</ele>
        <time>2020-12-17T13:02:02Z</time>
      </trkpt>
      <trkpt lat="44.98059" lon="5.84279">
        <ele>1661.78</ele>
        <time>2020-12-17T13:02:07Z</time>
      </trkpt>
      <trkpt lat="44.98053" lon="5.84271">
        <ele>1658.41</ele>
        <time>2020-12-17T13:02:16Z</time>
      </trkpt>
      <trkpt lat="44.98051" lon="5.84267">
        <ele>1656.97</ele>
        <time>2020-12-17T13:02:20Z</time>
      </trkpt>
      <trkpt lat="44.98045" lon="5.84257">
        <ele>1653.6</ele>
        <time>2020-12-17T13:02:29Z</time>
      </trkpt>
      <trkpt lat="44.98042" lon="5.84246">
        <ele>1650.24</ele>
        <time>2020-12-17T13:02:38Z</time>
      </trkpt>
      <trkpt lat="44.98041" lon="5.84245">
        <ele>1650.24</ele>
        <time>2020-12-17T13:02:39Z</time>
      </trkpt>
      <trkpt lat="44.98029" lon="5.84226">
        <ele>1646.88</ele>
        <time>2020-12-17T13:02:59Z</time>
      </trkpt>
      <trkpt lat="44.98024" lon="5.84214">
        <ele>1643.99</ele>
        <time>2020-12-17T13:03:13Z</time>
      </trkpt>
      <trkpt lat="44.98022" lon="5.84202">
        <ele>1640.63</ele>
        <time>2020-12-17T13:03:25Z</time>
      </trkpt>
      <trkpt lat="44.98018" lon="5.84195">
        <ele>1637.74</ele>
        <time>2020-12-17T13:03:36Z</time>
      </trkpt>
      <trkpt lat="44.98014" lon="5.84191">
        <ele>1636.3</ele>
        <time>2020-12-17T13:03:41Z</time>
      </trkpt>
      <trkpt lat="44.98009" lon="5.84182">
        <ele>1632.94</ele>
        <time>2020-12-17T13:03:51Z</time>
      </trkpt>
      <trkpt lat="44.98006" lon="5.84176">
        <ele>1630.05</ele>
        <time>2020-12-17T13:04:01Z</time>
      </trkpt>
      <trkpt lat="44.98" lon="5.84178">
        <ele>1628.13</ele>
        <time>2020-12-17T13:04:20Z</time>
      </trkpt>
      <trkpt lat="44.98" lon="5.84177">
        <ele>1627.65</ele>
        <time>2020-12-17T13:04:46Z</time>
      </trkpt>
      <trkpt lat="44.98" lon="5.84177">
        <ele>1627.17</ele>
        <time>2020-12-17T13:05:19Z</time>
      </trkpt>
      <trkpt lat="44.97999" lon="5.84177">
        <ele>1627.17</ele>
        <time>2020-12-17T13:06:07Z</time>
      </trkpt>
      <trkpt lat="44.97992" lon="5.84173">
        <ele>1627.17</ele>
        <time>2020-12-17T13:06:20Z</time>
      </trkpt>
      <trkpt lat="44.97985" lon="5.84172">
        <ele>1624.28</ele>
        <time>2020-12-17T13:06:29Z</time>
      </trkpt>
      <trkpt lat="44.97984" lon="5.84172">
        <ele>1624.28</ele>
        <time>2020-12-17T13:06:30Z</time>
      </trkpt>
      <trkpt lat="44.97983" lon="5.84171">
        <ele>1624.28</ele>
        <time>2020-12-17T13:06:31Z</time>
      </trkpt>
      <trkpt lat="44.97982" lon="5.84171">
        <ele>1623.8</ele>
        <time>2020-12-17T13:06:32Z</time>
      </trkpt>
      <trkpt lat="44.97973" lon="5.84163">
        <ele>1621.4</ele>
        <time>2020-12-17T13:06:46Z</time>
      </trkpt>
      <trkpt lat="44.97965" lon="5.84158">
        <ele>1619.48</ele>
        <time>2020-12-17T13:07:00Z</time>
      </trkpt>
      <trkpt lat="44.97959" lon="5.84157">
        <ele>1617.56</ele>
        <time>2020-12-17T13:07:14Z</time>
      </trkpt>
      <trkpt lat="44.97955" lon="5.84153">
        <ele>1615.63</ele>
        <time>2020-12-17T13:07:30Z</time>
      </trkpt>
      <trkpt lat="44.97953" lon="5.8415">
        <ele>1614.67</ele>
        <time>2020-12-17T13:07:48Z</time>
      </trkpt>
      <trkpt lat="44.97946" lon="5.84154">
        <ele>1614.67</ele>
        <time>2020-12-17T13:08:07Z</time>
      </trkpt>
      <trkpt lat="44.97942" lon="5.84155">
        <ele>1615.63</ele>
        <time>2020-12-17T13:08:22Z</time>
      </trkpt>
      <trkpt lat="44.97941" lon="5.84154">
        <ele>1615.15</ele>
        <time>2020-12-17T13:08:45Z</time>
      </trkpt>
      <trkpt lat="44.97941" lon="5.84157">
        <ele>1614.67</ele>
        <time>2020-12-17T13:09:30Z</time>
      </trkpt>
      <trkpt lat="44.97943" lon="5.84157">
        <ele>1614.67</ele>
        <time>2020-12-17T13:09:58Z</time>
      </trkpt>
      <trkpt lat="44.97944" lon="5.84157">
        <ele>1614.67</ele>
        <time>2020-12-17T13:10:47Z</time>
      </trkpt>
      <trkpt lat="44.97944" lon="5.84157">
        <ele>1614.67</ele>
        <time>2020-12-17T13:11:23Z</time>
      </trkpt>
      <trkpt lat="44.97945" lon="5.84157">
        <ele>1614.67</ele>
        <time>2020-12-17T13:12:41Z</time>
      </trkpt>
      <trkpt lat="44.97945" lon="5.84156">
        <ele>1614.67</ele>
        <time>2020-12-17T13:13:22Z</time>
      </trkpt>
      <trkpt lat="44.97945" lon="5.84156">
        <ele>1614.67</ele>
        <time>2020-12-17T13:13:48Z</time>
      </trkpt>
      <trkpt lat="44.97945" lon="5.84155">
        <ele>1614.67</ele>
        <time>2020-12-17T13:14:18Z</time>
      </trkpt>
      <trkpt lat="44.97945" lon="5.84155">
        <ele>1614.67</ele>
        <time>2020-12-17T13:14:46Z</time>
      </trkpt>
      <trkpt lat="44.97945" lon="5.84155">
        <ele>1614.67</ele>
        <time>2020-12-17T13:15:10Z</time>
      </trkpt>
      <trkpt lat="44.97946" lon="5.84155">
        <ele>1614.67</ele>
        <time>2020-12-17T13:15:32Z</time>
      </trkpt>
      <trkpt lat="44.97946" lon="5.84155">
        <ele>1614.67</ele>
        <time>2020-12-17T13:15:49Z</time>
      </trkpt>
      <trkpt lat="44.97945" lon="5.84154">
        <ele>1614.67</ele>
        <time>2020-12-17T13:16:16Z</time>
      </trkpt>
      <trkpt lat="44.97945" lon="5.84154">
        <ele>1614.67</ele>
        <time>2020-12-17T13:16:41Z</time>
      </trkpt>
      <trkpt lat="44.97944" lon="5.84155">
        <ele>1614.67</ele>
        <time>2020-12-17T13:16:59Z</time>
      </trkpt>
      <trkpt lat="44.97944" lon="5.84155">
        <ele>1614.67</ele>
        <time>2020-12-17T13:17:30Z</time>
      </trkpt>
      <trkpt lat="44.97944" lon="5.84155">
        <ele>1614.67</ele>
        <time>2020-12-17T13:18:05Z</time>
      </trkpt>
      <trkpt lat="44.97944" lon="5.84155">
        <ele>1614.67</ele>
        <time>2020-12-17T13:18:27Z</time>
      </trkpt>
      <trkpt lat="44.97944" lon="5.84156">
        <ele>1614.67</ele>
        <time>2020-12-17T13:19:03Z</time>
      </trkpt>
      <trkpt lat="44.97945" lon="5.84155">
        <ele>1614.67</ele>
        <time>2020-12-17T13:19:35Z</time>
      </trkpt>
      <trkpt lat="44.97945" lon="5.84155">
        <ele>1614.67</ele>
        <time>2020-12-17T13:20:08Z</time>
      </trkpt>
      <trkpt lat="44.97945" lon="5.84155">
        <ele>1614.67</ele>
        <time>2020-12-17T13:20:31Z</time>
      </trkpt>
      <trkpt lat="44.97945" lon="5.84155">
        <ele>1614.67</ele>
        <time>2020-12-17T13:21:11Z</time>
      </trkpt>
      <trkpt lat="44.97945" lon="5.84155">
        <ele>1614.67</ele>
        <time>2020-12-17T13:21:39Z</time>
      </trkpt>
      <trkpt lat="44.97945" lon="5.84155">
        <ele>1614.67</ele>
        <time>2020-12-17T13:21:59Z</time>
      </trkpt>
      <trkpt lat="44.97944" lon="5.84156">
        <ele>1614.67</ele>
        <time>2020-12-17T13:22:15Z</time>
      </trkpt>
      <trkpt lat="44.97944" lon="5.84156">
        <ele>1614.67</ele>
        <time>2020-12-17T13:22:31Z</time>
      </trkpt>
      <trkpt lat="44.97944" lon="5.84156">
        <ele>1614.67</ele>
        <time>2020-12-17T13:22:49Z</time>
      </trkpt>
      <trkpt lat="44.97944" lon="5.84155">
        <ele>1614.67</ele>
        <time>2020-12-17T13:23:10Z</time>
      </trkpt>
      <trkpt lat="44.97945" lon="5.84155">
        <ele>1614.67</ele>
        <time>2020-12-17T13:23:43Z</time>
      </trkpt>
      <trkpt lat="44.9794" lon="5.84155">
        <ele>1614.67</ele>
        <time>2020-12-17T13:24:06Z</time>
      </trkpt>
      <trkpt lat="44.97938" lon="5.84154">
        <ele>1614.67</ele>
        <time>2020-12-17T13:24:08Z</time>
      </trkpt>
      <trkpt lat="44.97924" lon="5.84145">
        <ele>1612.75</ele>
        <time>2020-12-17T13:24:26Z</time>
      </trkpt>
      <trkpt lat="44.97923" lon="5.84145">
        <ele>1610.83</ele>
        <time>2020-12-17T13:24:56Z</time>
      </trkpt>
      <trkpt lat="44.97924" lon="5.84145">
        <ele>1610.83</ele>
        <time>2020-12-17T13:25:30Z</time>
      </trkpt>
      <trkpt lat="44.97923" lon="5.84145">
        <ele>1610.83</ele>
        <time>2020-12-17T13:26:11Z</time>
      </trkpt>
      <trkpt lat="44.97921" lon="5.84144">
        <ele>1610.35</ele>
        <time>2020-12-17T13:26:37Z</time>
      </trkpt>
      <trkpt lat="44.97914" lon="5.84138">
        <ele>1608.9</ele>
        <time>2020-12-17T13:26:52Z</time>
      </trkpt>
      <trkpt lat="44.97904" lon="5.84129">
        <ele>1606.98</ele>
        <time>2020-12-17T13:27:07Z</time>
      </trkpt>
      <trkpt lat="44.97895" lon="5.84122">
        <ele>1604.1</ele>
        <time>2020-12-17T13:27:23Z</time>
      </trkpt>
      <trkpt lat="44.97892" lon="5.84121">
        <ele>1602.66</ele>
        <time>2020-12-17T13:27:45Z</time>
      </trkpt>
      <trkpt lat="44.97878" lon="5.84113">
        <ele>1600.25</ele>
        <time>2020-12-17T13:28:05Z</time>
      </trkpt>
      <trkpt lat="44.97868" lon="5.84108">
        <ele>1598.81</ele>
        <time>2020-12-17T13:28:20Z</time>
      </trkpt>
      <trkpt lat="44.97855" lon="5.84102">
        <ele>1596.41</ele>
        <time>2020-12-17T13:28:39Z</time>
      </trkpt>
      <trkpt lat="44.97843" lon="5.84096">
        <ele>1594</ele>
        <time>2020-12-17T13:28:55Z</time>
      </trkpt>
      <trkpt lat="44.97831" lon="5.84092">
        <ele>1592.08</ele>
        <time>2020-12-17T13:29:11Z</time>
      </trkpt>
      <trkpt lat="44.97819" lon="5.84086">
        <ele>1589.2</ele>
        <time>2020-12-17T13:29:28Z</time>
      </trkpt>
      <trkpt lat="44.97808" lon="5.8408">
        <ele>1587.27</ele>
        <time>2020-12-17T13:29:44Z</time>
      </trkpt>
      <trkpt lat="44.97797" lon="5.8407">
        <ele>1584.87</ele>
        <time>2020-12-17T13:30:02Z</time>
      </trkpt>
      <trkpt lat="44.97787" lon="5.84063">
        <ele>1582.47</ele>
        <time>2020-12-17T13:30:18Z</time>
      </trkpt>
      <trkpt lat="44.97778" lon="5.84054">
        <ele>1580.54</ele>
        <time>2020-12-17T13:30:33Z</time>
      </trkpt>
      <trkpt lat="44.97775" lon="5.8405">
        <ele>1579.1</ele>
        <time>2020-12-17T13:30:39Z</time>
      </trkpt>
      <trkpt lat="44.97767" lon="5.84041">
        <ele>1576.22</ele>
        <time>2020-12-17T13:30:53Z</time>
      </trkpt>
      <trkpt lat="44.97758" lon="5.84034">
        <ele>1573.82</ele>
        <time>2020-12-17T13:31:07Z</time>
      </trkpt>
      <trkpt lat="44.9775" lon="5.84028">
        <ele>1572.37</ele>
        <time>2020-12-17T13:31:19Z</time>
      </trkpt>
      <trkpt lat="44.9774" lon="5.84016">
        <ele>1569.97</ele>
        <time>2020-12-17T13:31:36Z</time>
      </trkpt>
      <trkpt lat="44.97736" lon="5.8401">
        <ele>1568.53</ele>
        <time>2020-12-17T13:31:45Z</time>
      </trkpt>
      <trkpt lat="44.9773" lon="5.84001">
        <ele>1566.61</ele>
        <time>2020-12-17T13:31:58Z</time>
      </trkpt>
      <trkpt lat="44.9773" lon="5.83999">
        <ele>1565.16</ele>
        <time>2020-12-17T13:32:12Z</time>
      </trkpt>
      <trkpt lat="44.9773" lon="5.83999">
        <ele>1564.68</ele>
        <time>2020-12-17T13:32:28Z</time>
      </trkpt>
      <trkpt lat="44.97728" lon="5.83999">
        <ele>1564.2</ele>
        <time>2020-12-17T13:33:05Z</time>
      </trkpt>
      <trkpt lat="44.97722" lon="5.83993">
        <ele>1563.72</ele>
        <time>2020-12-17T13:33:31Z</time>
      </trkpt>
      <trkpt lat="44.97719" lon="5.83984">
        <ele>1562.28</ele>
        <time>2020-12-17T13:33:44Z</time>
      </trkpt>
      <trkpt lat="44.97714" lon="5.83975">
        <ele>1560.36</ele>
        <time>2020-12-17T13:33:59Z</time>
      </trkpt>
      <trkpt lat="44.97707" lon="5.83971">
        <ele>1559.4</ele>
        <time>2020-12-17T13:34:18Z</time>
      </trkpt>
      <trkpt lat="44.977" lon="5.83961">
        <ele>1556.03</ele>
        <time>2020-12-17T13:34:32Z</time>
      </trkpt>
      <trkpt lat="44.9769" lon="5.83956">
        <ele>1553.63</ele>
        <time>2020-12-17T13:34:46Z</time>
      </trkpt>
      <trkpt lat="44.97684" lon="5.83953">
        <ele>1552.19</ele>
        <time>2020-12-17T13:34:53Z</time>
      </trkpt>
      <trkpt lat="44.97683" lon="5.83952">
        <ele>1551.71</ele>
        <time>2020-12-17T13:34:54Z</time>
      </trkpt>
      <trkpt lat="44.97681" lon="5.83947">
        <ele>1550.74</ele>
        <time>2020-12-17T13:35:08Z</time>
      </trkpt>
      <trkpt lat="44.97678" lon="5.83945">
        <ele>1550.26</ele>
        <time>2020-12-17T13:35:30Z</time>
      </trkpt>
      <trkpt lat="44.97673" lon="5.83938">
        <ele>1549.78</ele>
        <time>2020-12-17T13:35:44Z</time>
      </trkpt>
      <trkpt lat="44.97667" lon="5.8393">
        <ele>1547.86</ele>
        <time>2020-12-17T13:36:09Z</time>
      </trkpt>
      <trkpt lat="44.97661" lon="5.83928">
        <ele>1545.94</ele>
        <time>2020-12-17T13:36:21Z</time>
      </trkpt>
      <trkpt lat="44.97657" lon="5.83927">
        <ele>1544.01</ele>
        <time>2020-12-17T13:36:39Z</time>
      </trkpt>
      <trkpt lat="44.97655" lon="5.83923">
        <ele>1543.53</ele>
        <time>2020-12-17T13:36:52Z</time>
      </trkpt>
      <trkpt lat="44.9765" lon="5.8392">
        <ele>1542.57</ele>
        <time>2020-12-17T13:36:58Z</time>
      </trkpt>
      <trkpt lat="44.97646" lon="5.83918">
        <ele>1541.61</ele>
        <time>2020-12-17T13:37:04Z</time>
      </trkpt>
      <trkpt lat="44.97643" lon="5.83916">
        <ele>1539.21</ele>
        <time>2020-12-17T13:37:15Z</time>
      </trkpt>
      <trkpt lat="44.97637" lon="5.83904">
        <ele>1538.25</ele>
        <time>2020-12-17T13:37:34Z</time>
      </trkpt>
      <trkpt lat="44.97624" lon="5.8389">
        <ele>1535.36</ele>
        <time>2020-12-17T13:37:52Z</time>
      </trkpt>
      <trkpt lat="44.97623" lon="5.83889">
        <ele>1534.88</ele>
        <time>2020-12-17T13:37:53Z</time>
      </trkpt>
      <trkpt lat="44.97612" lon="5.83875">
        <ele>1532</ele>
        <time>2020-12-17T13:38:08Z</time>
      </trkpt>
      <trkpt lat="44.97604" lon="5.83864">
        <ele>1529.11</ele>
        <time>2020-12-17T13:38:20Z</time>
      </trkpt>
      <trkpt lat="44.97603" lon="5.83864">
        <ele>1529.11</ele>
        <time>2020-12-17T13:38:21Z</time>
      </trkpt>
      <trkpt lat="44.97592" lon="5.83856">
        <ele>1526.71</ele>
        <time>2020-12-17T13:38:35Z</time>
      </trkpt>
      <trkpt lat="44.97586" lon="5.83848">
        <ele>1524.79</ele>
        <time>2020-12-17T13:38:44Z</time>
      </trkpt>
      <trkpt lat="44.97578" lon="5.83834">
        <ele>1521.9</ele>
        <time>2020-12-17T13:38:59Z</time>
      </trkpt>
      <trkpt lat="44.97571" lon="5.8382">
        <ele>1519.02</ele>
        <time>2020-12-17T13:39:13Z</time>
      </trkpt>
      <trkpt lat="44.97564" lon="5.83808">
        <ele>1516.62</ele>
        <time>2020-12-17T13:39:28Z</time>
      </trkpt>
      <trkpt lat="44.9756" lon="5.838">
        <ele>1515.18</ele>
        <time>2020-12-17T13:39:44Z</time>
      </trkpt>
      <trkpt lat="44.97553" lon="5.83788">
        <ele>1514.21</ele>
        <time>2020-12-17T13:39:59Z</time>
      </trkpt>
      <trkpt lat="44.97551" lon="5.83782">
        <ele>1513.73</ele>
        <time>2020-12-17T13:40:04Z</time>
      </trkpt>
      <trkpt lat="44.97548" lon="5.83768">
        <ele>1512.29</ele>
        <time>2020-12-17T13:40:19Z</time>
      </trkpt>
      <trkpt lat="44.97544" lon="5.83749">
        <ele>1510.37</ele>
        <time>2020-12-17T13:40:36Z</time>
      </trkpt>
      <trkpt lat="44.97541" lon="5.83732">
        <ele>1508.93</ele>
        <time>2020-12-17T13:40:52Z</time>
      </trkpt>
      <trkpt lat="44.9754" lon="5.8373">
        <ele>1508.45</ele>
        <time>2020-12-17T13:40:54Z</time>
      </trkpt>
      <trkpt lat="44.97536" lon="5.83713">
        <ele>1506.04</ele>
        <time>2020-12-17T13:41:11Z</time>
      </trkpt>
      <trkpt lat="44.97534" lon="5.83701">
        <ele>1504.6</ele>
        <time>2020-12-17T13:41:32Z</time>
      </trkpt>
      <trkpt lat="44.97535" lon="5.83681">
        <ele>1501.72</ele>
        <time>2020-12-17T13:41:50Z</time>
      </trkpt>
      <trkpt lat="44.97541" lon="5.83666">
        <ele>1499.31</ele>
        <time>2020-12-17T13:42:04Z</time>
      </trkpt>
      <trkpt lat="44.97548" lon="5.8365">
        <ele>1496.43</ele>
        <time>2020-12-17T13:42:20Z</time>
      </trkpt>
      <trkpt lat="44.97555" lon="5.8363">
        <ele>1493.55</ele>
        <time>2020-12-17T13:42:38Z</time>
      </trkpt>
      <trkpt lat="44.97554" lon="5.83611">
        <ele>1490.18</ele>
        <time>2020-12-17T13:42:55Z</time>
      </trkpt>
      <trkpt lat="44.97548" lon="5.83592">
        <ele>1487.78</ele>
        <time>2020-12-17T13:43:11Z</time>
      </trkpt>
      <trkpt lat="44.97544" lon="5.83573">
        <ele>1485.85</ele>
        <time>2020-12-17T13:43:28Z</time>
      </trkpt>
      <trkpt lat="44.97543" lon="5.83561">
        <ele>1484.41</ele>
        <time>2020-12-17T13:43:42Z</time>
      </trkpt>
      <trkpt lat="44.97543" lon="5.83548">
        <ele>1481.05</ele>
        <time>2020-12-17T13:43:55Z</time>
      </trkpt>
      <trkpt lat="44.97541" lon="5.83531">
        <ele>1478.16</ele>
        <time>2020-12-17T13:44:11Z</time>
      </trkpt>
      <trkpt lat="44.97536" lon="5.83514">
        <ele>1475.28</ele>
        <time>2020-12-17T13:44:27Z</time>
      </trkpt>
      <trkpt lat="44.97534" lon="5.83494">
        <ele>1472.4</ele>
        <time>2020-12-17T13:44:47Z</time>
      </trkpt>
      <trkpt lat="44.97524" lon="5.83475">
        <ele>1469.03</ele>
        <time>2020-12-17T13:45:07Z</time>
      </trkpt>
      <trkpt lat="44.97517" lon="5.8346">
        <ele>1467.11</ele>
        <time>2020-12-17T13:45:21Z</time>
      </trkpt>
      <trkpt lat="44.9751" lon="5.83443">
        <ele>1464.71</ele>
        <time>2020-12-17T13:45:38Z</time>
      </trkpt>
      <trkpt lat="44.97504" lon="5.83425">
        <ele>1461.82</ele>
        <time>2020-12-17T13:45:55Z</time>
      </trkpt>
      <trkpt lat="44.97498" lon="5.83406">
        <ele>1459.42</ele>
        <time>2020-12-17T13:46:13Z</time>
      </trkpt>
      <trkpt lat="44.97495" lon="5.83398">
        <ele>1457.98</ele>
        <time>2020-12-17T13:46:20Z</time>
      </trkpt>
      <trkpt lat="44.97488" lon="5.83379">
        <ele>1455.57</ele>
        <time>2020-12-17T13:46:37Z</time>
      </trkpt>
      <trkpt lat="44.97485" lon="5.83365">
        <ele>1454.13</ele>
        <time>2020-12-17T13:46:50Z</time>
      </trkpt>
      <trkpt lat="44.97479" lon="5.83341">
        <ele>1450.77</ele>
        <time>2020-12-17T13:47:10Z</time>
      </trkpt>
      <trkpt lat="44.97473" lon="5.83324">
        <ele>1447.88</ele>
        <time>2020-12-17T13:47:27Z</time>
      </trkpt>
      <trkpt lat="44.97466" lon="5.83305">
        <ele>1445</ele>
        <time>2020-12-17T13:47:45Z</time>
      </trkpt>
      <trkpt lat="44.97458" lon="5.83288">
        <ele>1442.6</ele>
        <time>2020-12-17T13:48:02Z</time>
      </trkpt>
      <trkpt lat="44.97455" lon="5.83279">
        <ele>1441.15</ele>
        <time>2020-12-17T13:48:11Z</time>
      </trkpt>
      <trkpt lat="44.97451" lon="5.83259">
        <ele>1438.27</ele>
        <time>2020-12-17T13:48:28Z</time>
      </trkpt>
      <trkpt lat="44.97446" lon="5.83239">
        <ele>1435.39</ele>
        <time>2020-12-17T13:48:45Z</time>
      </trkpt>
      <trkpt lat="44.97443" lon="5.83219">
        <ele>1432.02</ele>
        <time>2020-12-17T13:49:03Z</time>
      </trkpt>
      <trkpt lat="44.9744" lon="5.83202">
        <ele>1429.62</ele>
        <time>2020-12-17T13:49:22Z</time>
      </trkpt>
      <trkpt lat="44.97437" lon="5.83182">
        <ele>1426.25</ele>
        <time>2020-12-17T13:49:39Z</time>
      </trkpt>
      <trkpt lat="44.97436" lon="5.83165">
        <ele>1424.33</ele>
        <time>2020-12-17T13:49:55Z</time>
      </trkpt>
      <trkpt lat="44.97432" lon="5.83134">
        <ele>1420.97</ele>
        <time>2020-12-17T13:50:18Z</time>
      </trkpt>
      <trkpt lat="44.97428" lon="5.83107">
        <ele>1418.56</ele>
        <time>2020-12-17T13:50:42Z</time>
      </trkpt>
      <trkpt lat="44.97427" lon="5.83097">
        <ele>1417.12</ele>
        <time>2020-12-17T13:50:49Z</time>
      </trkpt>
      <trkpt lat="44.97425" lon="5.83076">
        <ele>1414.24</ele>
        <time>2020-12-17T13:51:04Z</time>
      </trkpt>
      <trkpt lat="44.97424" lon="5.83059">
        <ele>1410.39</ele>
        <time>2020-12-17T13:51:19Z</time>
      </trkpt>
      <trkpt lat="44.97423" lon="5.83042">
        <ele>1407.51</ele>
        <time>2020-12-17T13:51:32Z</time>
      </trkpt>
      <trkpt lat="44.97423" lon="5.83024">
        <ele>1404.14</ele>
        <time>2020-12-17T13:51:46Z</time>
      </trkpt>
      <trkpt lat="44.97421" lon="5.83006">
        <ele>1400.78</ele>
        <time>2020-12-17T13:51:58Z</time>
      </trkpt>
      <trkpt lat="44.97422" lon="5.82987">
        <ele>1397.89</ele>
        <time>2020-12-17T13:52:12Z</time>
      </trkpt>
      <trkpt lat="44.97422" lon="5.82975">
        <ele>1395.01</ele>
        <time>2020-12-17T13:52:24Z</time>
      </trkpt>
      <trkpt lat="44.97425" lon="5.8297">
        <ele>1392.13</ele>
        <time>2020-12-17T13:52:42Z</time>
      </trkpt>
      <trkpt lat="44.97424" lon="5.82963">
        <ele>1389.24</ele>
        <time>2020-12-17T13:52:59Z</time>
      </trkpt>
      <trkpt lat="44.97424" lon="5.82953">
        <ele>1386.36</ele>
        <time>2020-12-17T13:53:14Z</time>
      </trkpt>
      <trkpt lat="44.9742" lon="5.82947">
        <ele>1383.47</ele>
        <time>2020-12-17T13:53:27Z</time>
      </trkpt>
      <trkpt lat="44.97416" lon="5.82938">
        <ele>1380.59</ele>
        <time>2020-12-17T13:53:45Z</time>
      </trkpt>
      <trkpt lat="44.97414" lon="5.82933">
        <ele>1379.63</ele>
        <time>2020-12-17T13:54:04Z</time>
      </trkpt>
      <trkpt lat="44.97413" lon="5.82929">
        <ele>1379.15</ele>
        <time>2020-12-17T13:54:18Z</time>
      </trkpt>
      <trkpt lat="44.97405" lon="5.82923">
        <ele>1379.63</ele>
        <time>2020-12-17T13:54:38Z</time>
      </trkpt>
      <trkpt lat="44.97403" lon="5.82922">
        <ele>1379.63</ele>
        <time>2020-12-17T13:54:40Z</time>
      </trkpt>
      <trkpt lat="44.97392" lon="5.82914">
        <ele>1379.63</ele>
        <time>2020-12-17T13:54:55Z</time>
      </trkpt>
      <trkpt lat="44.97381" lon="5.82904">
        <ele>1377.23</ele>
        <time>2020-12-17T13:55:10Z</time>
      </trkpt>
      <trkpt lat="44.9738" lon="5.82903">
        <ele>1377.23</ele>
        <time>2020-12-17T13:55:11Z</time>
      </trkpt>
      <trkpt lat="44.97367" lon="5.82891">
        <ele>1373.86</ele>
        <time>2020-12-17T13:55:28Z</time>
      </trkpt>
      <trkpt lat="44.97357" lon="5.8288">
        <ele>1371.46</ele>
        <time>2020-12-17T13:55:40Z</time>
      </trkpt>
      <trkpt lat="44.97346" lon="5.82869">
        <ele>1368.57</ele>
        <time>2020-12-17T13:55:53Z</time>
      </trkpt>
      <trkpt lat="44.97334" lon="5.82864">
        <ele>1365.69</ele>
        <time>2020-12-17T13:56:09Z</time>
      </trkpt>
      <trkpt lat="44.97323" lon="5.82853">
        <ele>1362.81</ele>
        <time>2020-12-17T13:56:22Z</time>
      </trkpt>
      <trkpt lat="44.97319" lon="5.82846">
        <ele>1360.4</ele>
        <time>2020-12-17T13:56:41Z</time>
      </trkpt>
      <trkpt lat="44.97314" lon="5.8284">
        <ele>1357.52</ele>
        <time>2020-12-17T13:56:57Z</time>
      </trkpt>
      <trkpt lat="44.97307" lon="5.82833">
        <ele>1355.6</ele>
        <time>2020-12-17T13:57:12Z</time>
      </trkpt>
      <trkpt lat="44.97307" lon="5.82832">
        <ele>1355.6</ele>
        <time>2020-12-17T13:57:13Z</time>
      </trkpt>
      <trkpt lat="44.973" lon="5.82822">
        <ele>1352.23</ele>
        <time>2020-12-17T13:57:25Z</time>
      </trkpt>
      <trkpt lat="44.97299" lon="5.82821">
        <ele>1352.23</ele>
        <time>2020-12-17T13:57:26Z</time>
      </trkpt>
      <trkpt lat="44.97298" lon="5.8282">
        <ele>1351.75</ele>
        <time>2020-12-17T13:57:27Z</time>
      </trkpt>
      <trkpt lat="44.97291" lon="5.82809">
        <ele>1348.39</ele>
        <time>2020-12-17T13:57:38Z</time>
      </trkpt>
      <trkpt lat="44.97286" lon="5.82802">
        <ele>1345.02</ele>
        <time>2020-12-17T13:57:52Z</time>
      </trkpt>
      <trkpt lat="44.97291" lon="5.82801">
        <ele>1343.1</ele>
        <time>2020-12-17T13:58:27Z</time>
      </trkpt>
      <trkpt lat="44.97292" lon="5.82804">
        <ele>1343.1</ele>
        <time>2020-12-17T13:58:51Z</time>
      </trkpt>
      <trkpt lat="44.97291" lon="5.82804">
        <ele>1343.1</ele>
        <time>2020-12-17T13:59:01Z</time>
      </trkpt>
      <trkpt lat="44.97292" lon="5.82802">
        <ele>1343.1</ele>
        <time>2020-12-17T13:59:17Z</time>
      </trkpt>
      <trkpt lat="44.97294" lon="5.82802">
        <ele>1343.1</ele>
        <time>2020-12-17T13:59:39Z</time>
      </trkpt>
      <trkpt lat="44.97287" lon="5.828">
        <ele>1343.1</ele>
        <time>2020-12-17T14:00:07Z</time>
      </trkpt>
      <trkpt lat="44.97274" lon="5.82794">
        <ele>1342.14</ele>
        <time>2020-12-17T14:00:21Z</time>
      </trkpt>
      <trkpt lat="44.97268" lon="5.82791">
        <ele>1341.18</ele>
        <time>2020-12-17T14:00:27Z</time>
      </trkpt>
      <trkpt lat="44.97258" lon="5.82787">
        <ele>1339.73</ele>
        <time>2020-12-17T14:00:38Z</time>
      </trkpt>
      <trkpt lat="44.97247" lon="5.82781">
        <ele>1336.85</ele>
        <time>2020-12-17T14:00:53Z</time>
      </trkpt>
      <trkpt lat="44.97241" lon="5.82768">
        <ele>1334.45</ele>
        <time>2020-12-17T14:01:08Z</time>
      </trkpt>
      <trkpt lat="44.97236" lon="5.82752">
        <ele>1331.56</ele>
        <time>2020-12-17T14:01:23Z</time>
      </trkpt>
      <trkpt lat="44.97234" lon="5.82739">
        <ele>1329.16</ele>
        <time>2020-12-17T14:01:34Z</time>
      </trkpt>
      <trkpt lat="44.97232" lon="5.82724">
        <ele>1325.8</ele>
        <time>2020-12-17T14:01:46Z</time>
      </trkpt>
      <trkpt lat="44.97229" lon="5.82707">
        <ele>1322.43</ele>
        <time>2020-12-17T14:02:01Z</time>
      </trkpt>
      <trkpt lat="44.97229" lon="5.82703">
        <ele>1321.95</ele>
        <time>2020-12-17T14:02:04Z</time>
      </trkpt>
      <trkpt lat="44.97229" lon="5.82702">
        <ele>1321.95</ele>
        <time>2020-12-17T14:02:05Z</time>
      </trkpt>
      <trkpt lat="44.97229" lon="5.827">
        <ele>1321.47</ele>
        <time>2020-12-17T14:02:06Z</time>
      </trkpt>
      <trkpt lat="44.97231" lon="5.82676">
        <ele>1318.59</ele>
        <time>2020-12-17T14:02:23Z</time>
      </trkpt>
      <trkpt lat="44.97233" lon="5.82654">
        <ele>1315.7</ele>
        <time>2020-12-17T14:02:40Z</time>
      </trkpt>
      <trkpt lat="44.97233" lon="5.8265">
        <ele>1315.22</ele>
        <time>2020-12-17T14:02:43Z</time>
      </trkpt>
      <trkpt lat="44.97236" lon="5.82628">
        <ele>1313.78</ele>
        <time>2020-12-17T14:02:59Z</time>
      </trkpt>
      <trkpt lat="44.97239" lon="5.82603">
        <ele>1312.82</ele>
        <time>2020-12-17T14:03:18Z</time>
      </trkpt>
      <trkpt lat="44.97243" lon="5.82587">
        <ele>1312.34</ele>
        <time>2020-12-17T14:03:32Z</time>
      </trkpt>
      <trkpt lat="44.97252" lon="5.82574">
        <ele>1312.82</ele>
        <time>2020-12-17T14:03:48Z</time>
      </trkpt>
      <trkpt lat="44.97258" lon="5.82562">
        <ele>1313.3</ele>
        <time>2020-12-17T14:04:05Z</time>
      </trkpt>
      <trkpt lat="44.97268" lon="5.82558">
        <ele>1314.74</ele>
        <time>2020-12-17T14:04:18Z</time>
      </trkpt>
      <trkpt lat="44.97281" lon="5.8255">
        <ele>1316.18</ele>
        <time>2020-12-17T14:04:35Z</time>
      </trkpt>
      <trkpt lat="44.97284" lon="5.82531">
        <ele>1317.62</ele>
        <time>2020-12-17T14:04:53Z</time>
      </trkpt>
      <trkpt lat="44.97281" lon="5.82514">
        <ele>1318.1</ele>
        <time>2020-12-17T14:05:11Z</time>
      </trkpt>
      <trkpt lat="44.9728" lon="5.82514">
        <ele>1318.59</ele>
        <time>2020-12-17T14:05:37Z</time>
      </trkpt>
      <trkpt lat="44.97281" lon="5.82514">
        <ele>1315.22</ele>
        <time>2020-12-17T14:05:44Z</time>
      </trkpt>
      <trkpt lat="44.97281" lon="5.82514">
        <ele>1314.74</ele>
        <time>2020-12-17T14:05:46Z</time>
      </trkpt>
      <trkpt lat="44.97281" lon="5.82514">
        <ele>1318.59</ele>
        <time>2020-12-17T14:05:51Z</time>
      </trkpt>
    </trkseg>
  </trk>
</gpx>